Observation data for Palo Duro Canyon State Park Rim on 05/25/2020      Previous  Date  Next       Current Mesonet Observations  Soil Data  Daily Summary Page  Observations in Plain Language
KPD1 250500Z 07008KT 16/11 A2978 RMK A01 T01620105  RH  069%=      5-min Rain = 0
KPD1 250501Z 09006KT 16/11 A2978 RMK A01 T01600106  RH  070%=      5-min Rain = 0
KPD1 250502Z 11006KT 16/11 A2978 RMK A01 T01590107  RH  071%=      5-min Rain = 0
KPD1 250503Z 12008KT 16/11 A2978 RMK A01 T01580107  RH  072%=      5-min Rain = 0
KPD1 250504Z 12007KT 16/11 A2978 RMK A01 T01570107  RH  072%=      5-min Rain = 0
KPD1 250505Z 09008G13KT 16/11 A2978 RMK A01 T01560106  RH  072%=      5-min Rain = 0
KPD1 250506Z 11008KT 16/11 A2978 RMK A01 T01560107  RH  072%=      5-min Rain = 0
KPD1 250507Z 09006KT 16/11 A2979 RMK A01 T01550106  RH  072%=      5-min Rain = 0
KPD1 250508Z 11004KT 16/11 A2979 RMK A01 T01550106  RH  073%=      5-min Rain = 0
KPD1 250509Z 12006KT 16/11 A2979 RMK A01 T01550107  RH  073%=      5-min Rain = 0
KPD1 250510Z 12007KT 15/11 A298 RMK A01 T01540106  RH  073%=      5-min Rain = 0
KPD1 250511Z 12008KT 16/11 A298 RMK A01 T01550107  RH  073%=      5-min Rain = 0
KPD1 250512Z 13008KT 15/11 A298 RMK A01 T01540106  RH  073%=      5-min Rain = 0
KPD1 250513Z 12009KT 16/11 A298 RMK A01 T01550106  RH  073%=      5-min Rain = 0
KPD1 250514Z 12007KT 16/11 A298 RMK A01 T01550105  RH  072%=      5-min Rain = 0
KPD1 250515Z 12007KT 16/11 A298 RMK A01 T01550105  RH  072%=      5-min Rain = 0
KPD1 250516Z 12005KT 16/10 A298 RMK A01 T01560104  RH  071%=      5-min Rain = 0
KPD1 250517Z 11005KT 16/10 A298 RMK A01 T01560104  RH  071%=      5-min Rain = 0
KPD1 250518Z 10006KT 16/10 A298 RMK A01 T01570103  RH  071%=      5-min Rain = 0
KPD1 250519Z 10005KT 16/10 A298 RMK A01 T01570103  RH  070%=      5-min Rain = 0
KPD1 250520Z 10007KT 16/10 A298 RMK A01 T01580104  RH  070%=      5-min Rain = 0
KPD1 250521Z 11010G15KT 16/10 A298 RMK A01 T01580102  RH  070%=      5-min Rain = 0
KPD1 250522Z 11008KT 16/10 A298 RMK A01 T01590101  RH  068%=      5-min Rain = 0
KPD1 250523Z 11009KT 16/10 A298 RMK A01 T01600100  RH  068%=      5-min Rain = 0
KPD1 250524Z 09009KT 16/10 A298 RMK A01 T01600100  RH  067%=      5-min Rain = 0
KPD1 250525Z 08012KT 16/10 A298 RMK A01 T01610100  RH  067%=      5-min Rain = 0
KPD1 250526Z 10007G13KT 16/10 A298 RMK A01 T01610100  RH  067%=      5-min Rain = 0
KPD1 250527Z 09007KT 16/10 A2981 RMK A01 T01610100  RH  067%=      5-min Rain = 0
KPD1 250528Z 11010G17KT 16/10 A2981 RMK A01 T01610100  RH  067%=      5-min Rain = 0
KPD1 250529Z 10010G16KT 16/10 A2981 RMK A01 T01610099  RH  067%=      5-min Rain = 0
KPD1 250530Z 09010KT 16/10 A2981 RMK A01 T01610100  RH  067%=      5-min Rain = 0
KPD1 250531Z 11006KT 16/10 A2981 RMK A01 T01610100  RH  067%=      5-min Rain = 0
KPD1 250532Z 10007KT 16/10 A2982 RMK A01 T01610100  RH  067%=      5-min Rain = 0
KPD1 250533Z 10008KT 16/10 A2982 RMK A01 T01610099  RH  067%=      5-min Rain = 0
KPD1 250534Z 11007KT 16/10 A2982 RMK A01 T01610099  RH  067%=      5-min Rain = 0
KPD1 250535Z 14006KT 16/10 A2982 RMK A01 T01610099  RH  067%=      5-min Rain = 0
KPD1 250536Z 11006KT 16/10 A2982 RMK A01 T01610099  RH  067%=      5-min Rain = 0
KPD1 250537Z 13005KT 16/10 A2983 RMK A01 T01610099  RH  067%=      5-min Rain = 0
KPD1 250538Z 11007G12KT 16/10 A2983 RMK A01 T01610099  RH  067%=      5-min Rain = 0
KPD1 250539Z 10009KT 16/10 A2983 RMK A01 T01610099  RH  067%=      5-min Rain = 0
KPD1 250540Z 09006KT 16/10 A2982 RMK A01 T01610099  RH  067%=      5-min Rain = 0
KPD1 250541Z 11008KT 16/10 A2982 RMK A01 T01610099  RH  067%=      5-min Rain = 0
KPD1 250542Z 07006KT 16/10 A2982 RMK A01 T01610099  RH  067%=      5-min Rain = 0
KPD1 250543Z 07010KT 16/10 A2982 RMK A01 T01610099  RH  067%=      5-min Rain = 0
KPD1 250544Z 09009KT 16/10 A2982 RMK A01 T01610099  RH  067%=      5-min Rain = 0
KPD1 250545Z 08008KT 16/10 A2982 RMK A01 T01610099  RH  067%=      5-min Rain = 0
KPD1 250546Z 10007KT 16/10 A2983 RMK A01 T01610100  RH  067%=      5-min Rain = 0
KPD1 250547Z 09009G14KT 16/10 A2983 RMK A01 T01600100  RH  067%=      5-min Rain = 0
KPD1 250548Z 10010G16KT 16/10 A2983 RMK A01 T01600100  RH  068%=      5-min Rain = 0
KPD1 250549Z 09007KT 16/10 A2983 RMK A01 T01600101  RH  068%=      5-min Rain = 0
KPD1 250550Z 12005G10KT 16/10 A2984 RMK A01 T01590100  RH  068%=      5-min Rain = 0
KPD1 250551Z 11004KT 16/10 A2984 RMK A01 T01590100  RH  068%=      5-min Rain = 0
KPD1 250552Z 15007KT 16/10 A2984 RMK A01 T01580100  RH  068%=      5-min Rain = 0
KPD1 250553Z 13008KT 16/10 A2984 RMK A01 T01580100  RH  068%=      5-min Rain = 0
KPD1 250554Z 12006KT 16/10 A2984 RMK A01 T01580101  RH  069%=      5-min Rain = 0
KPD1 250555Z 10008KT 16/10 A2984 RMK A01 T01580101  RH  069%=      5-min Rain = 0
KPD1 250556Z 10007KT 16/10 A2984 RMK A01 T01580101  RH  069%=      5-min Rain = 0
KPD1 250557Z 10007KT 16/10 A2984 RMK A01 T01580101  RH  069%=      5-min Rain = 0
KPD1 250558Z 10007KT 16/10 A2984 RMK A01 T01580101  RH  069%=      5-min Rain = 0
KPD1 250559Z 09006KT 16/10 A2984 RMK A01 T01580101  RH  069%=      5-min Rain = 0
KPD1 250600Z 10006KT 16/10 A2985 RMK A01 T01580100  RH  069%=      5-min Rain = 0
KPD1 250601Z 14004KT 16/10 A2985 RMK A01 T01580100  RH  069%=      5-min Rain = 0
KPD1 250602Z 13003KT 16/10 A2986 RMK A01 T01580100  RH  069%=      5-min Rain = 0
KPD1 250603Z 14004KT 16/10 A2986 RMK A01 T01580101  RH  069%=      5-min Rain = 0
KPD1 250604Z 13003KT 16/10 A2986 RMK A01 T01580101  RH  069%=      5-min Rain = 0
KPD1 250605Z 12004KT 16/10 A2986 RMK A01 T01580101  RH  069%=      5-min Rain = 0
KPD1 250606Z 11005KT 16/10 A2986 RMK A01 T01570100  RH  069%=      5-min Rain = 0
KPD1 250607Z 11004KT 16/10 A2986 RMK A01 T01570100  RH  069%=      5-min Rain = 0
KPD1 250608Z 09007KT 16/10 A2986 RMK A01 T01570100  RH  069%=      5-min Rain = 0
KPD1 250609Z 11006KT 16/10 A2986 RMK A01 T01580101  RH  069%=      5-min Rain = 0
KPD1 250610Z 11007KT 16/10 A2986 RMK A01 T01580100  RH  069%=      5-min Rain = 0
KPD1 250611Z 12007KT 16/10 A2986 RMK A01 T01580100  RH  069%=      5-min Rain = 0
KPD1 250612Z 14006KT 16/10 A2986 RMK A01 T01580101  RH  069%=      5-min Rain = 0
KPD1 250613Z 15005KT 16/10 A2986 RMK A01 T01580101  RH  069%=      5-min Rain = 0
KPD1 250614Z 15007KT 16/10 A2986 RMK A01 T01580101  RH  069%=      5-min Rain = 0
KPD1 250615Z 15008KT 16/10 A2986 RMK A01 T01580101  RH  069%=      5-min Rain = 0
KPD1 250616Z 14006KT 16/10 A2986 RMK A01 T01580101  RH  069%=      5-min Rain = 0
KPD1 250617Z 17005KT 16/10 A2986 RMK A01 T01580101  RH  069%=      5-min Rain = 0
KPD1 250618Z 16006KT 16/10 A2987 RMK A01 T01580101  RH  069%=      5-min Rain = 0
KPD1 250619Z 17003KT 16/10 A2987 RMK A01 T01580101  RH  069%=      5-min Rain = 0
KPD1 250620Z 16004KT 16/10 A2987 RMK A01 T01580101  RH  069%=      5-min Rain = 0
KPD1 250621Z 16003KT 16/10 A2987 RMK A01 T01580101  RH  069%=      5-min Rain = 0
KPD1 250622Z 16004KT 16/10 A2987 RMK A01 T01580101  RH  069%=      5-min Rain = 0
KPD1 250623Z 17003KT 16/10 A2988 RMK A01 T01580101  RH  069%=      5-min Rain = 0
KPD1 250624Z 15001KT 16/10 A2988 RMK A01 T01580101  RH  069%=      5-min Rain = 0
KPD1 250625Z 16003KT 16/10 A2988 RMK A01 T01570101  RH  069%=      5-min Rain = 0
KPD1 250626Z 16003KT 16/10 A2989 RMK A01 T01570102  RH  069%=      5-min Rain = 0
KPD1 250627Z 16002KT 16/10 A2989 RMK A01 T01570101  RH  070%=      5-min Rain = 0
KPD1 250628Z 18001KT 16/10 A2989 RMK A01 T01570101  RH  070%=      5-min Rain = 0
KPD1 250629Z 18001KT 16/10 A299 RMK A01 T01570101  RH  070%=      5-min Rain = 0
KPD1 250630Z 19001KT 16/10 A299 RMK A01 T01570101  RH  070%=      5-min Rain = 0
KPD1 250631Z 19001KT 16/10 A299 RMK A01 T01570101  RH  070%=      5-min Rain = 0
KPD1 250632Z 20002KT 16/10 A299 RMK A01 T01570102  RH  070%=      5-min Rain = 0
KPD1 250633Z 22001KT 16/10 A299 RMK A01 T01560101  RH  070%=      5-min Rain = 0
KPD1 250634Z 22001KT 16/10 A299 RMK A01 T01560102  RH  070%=      5-min Rain = 0
KPD1 250635Z 18002KT 16/10 A299 RMK A01 T01560101  RH  070%=      5-min Rain = 0
KPD1 250636Z 17003KT 16/10 A299 RMK A01 T01550101  RH  070%=      5-min Rain = 0
KPD1 250637Z 17002KT 16/10 A299 RMK A01 T01550101  RH  070%=      5-min Rain = 0
KPD1 250638Z 17002KT 15/10 A299 RMK A01 T01540101  RH  071%=      5-min Rain = 0
KPD1 250639Z 16002KT 15/10 A299 RMK A01 T01540101  RH  071%=      5-min Rain = 0
KPD1 250640Z 15002KT 15/10 A299 RMK A01 T01540101  RH  071%=      5-min Rain = 0
KPD1 250641Z 14002KT 15/10 A299 RMK A01 T01530101  RH  071%=      5-min Rain = 0
KPD1 250642Z 13001KT 15/10 A2991 RMK A01 T01530101  RH  071%=      5-min Rain = 0
KPD1 250643Z 14002KT 15/10 A2991 RMK A01 T01530102  RH  071%=      5-min Rain = 0
KPD1 250644Z 16002KT 15/10 A2991 RMK A01 T01530102  RH  072%=      5-min Rain = 0
KPD1 250645Z 16002KT 15/10 A2991 RMK A01 T01520102  RH  072%=      5-min Rain = 0
KPD1 250646Z 16002KT 15/10 A2991 RMK A01 T01520102  RH  072%=      5-min Rain = 0
KPD1 250647Z 16001KT 15/10 A2991 RMK A01 T01520102  RH  072%=      5-min Rain = 0
KPD1 250648Z 17000KT 15/10 A2991 RMK A01 T01520102  RH  072%=      5-min Rain = 0
KPD1 250649Z 00000KT 15/10 A2991 RMK A01 T01520102  RH  072%=      5-min Rain = 0
KPD1 250650Z 35001KT 15/10 A2992 RMK A01 T01520102  RH  072%=      5-min Rain = 0
KPD1 250651Z 36003KT 15/10 A2992 RMK A01 T01520102  RH  072%=      5-min Rain = 0
KPD1 250652Z 00005KT 15/10 A2992 RMK A01 T01520102  RH  072%=      5-min Rain = 0
KPD1 250653Z 36006KT 15/10 A2993 RMK A01 T01520102  RH  072%=      5-min Rain = 0
KPD1 250654Z 35008KT 15/10 A2993 RMK A01 T01520102  RH  072%=      5-min Rain = 0
KPD1 250655Z 35008KT 15/10 A2993 RMK A01 T01530102  RH  072%=      5-min Rain = 0
KPD1 250656Z 36008KT 15/10 A2993 RMK A01 T01530102  RH  071%=      5-min Rain = 0
KPD1 250657Z 36007KT 15/10 A2993 RMK A01 T01540102  RH  071%=      5-min Rain = 0
KPD1 250658Z 36006KT 16/10 A2993 RMK A01 T01550102  RH  071%=      5-min Rain = 0
KPD1 250659Z 36005KT 16/10 A2993 RMK A01 T01560102  RH  070%=      5-min Rain = 0
KPD1 250700Z 00005KT 16/10 A2993 RMK A01 T01560102  RH  070%=      5-min Rain = 0
KPD1 250701Z 00003KT 16/10 A2992 RMK A01 T01570102  RH  070%=      5-min Rain = 0
KPD1 250702Z 01003KT 16/10 A2992 RMK A01 T01570102  RH  070%=      5-min Rain = 0
KPD1 250703Z 02003KT 16/10 A2992 RMK A01 T01570102  RH  070%=      5-min Rain = 0
KPD1 250704Z 01005KT 16/10 A2992 RMK A01 T01570102  RH  070%=      5-min Rain = 0
KPD1 250705Z 00008KT 16/10 A2993 RMK A01 T01570103  RH  070%=      5-min Rain = 0
KPD1 250706Z 01007KT 16/10 A2993 RMK A01 T01560103  RH  070%=      5-min Rain = 0
KPD1 250707Z 00007KT 16/10 A2993 RMK A01 T01560103  RH  071%=      5-min Rain = 0
KPD1 250708Z 01008KT 16/11 A2993 RMK A01 T01560105  RH  072%=      5-min Rain = 0
KPD1 250709Z 36006KT 16/11 A2994 RMK A01 T01550106  RH  073%=      5-min Rain = 0
KPD1 250710Z 36006KT 15/11 A2994 RMK A01 T01540107  RH  073%=      5-min Rain = 0
KPD1 250711Z 00005KT 15/11 A2994 RMK A01 T01530107  RH  074%=      5-min Rain = 0
KPD1 250712Z 01005KT 15/11 A2993 RMK A01 T01530108  RH  075%=      5-min Rain = 0
KPD1 250713Z 00005KT 15/11 A2993 RMK A01 T01520109  RH  075%=      5-min Rain = 0
KPD1 250714Z 02005KT 15/11 A2993 RMK A01 T01510109  RH  076%=      5-min Rain = 0
KPD1 250715Z 03006KT 15/11 A2993 RMK A01 T01510109  RH  076%=      5-min Rain = 0
KPD1 250716Z 03007KT 15/11 A2993 RMK A01 T01500110  RH  077%=      5-min Rain = 0
KPD1 250717Z 03008KT 15/11 A2994 RMK A01 T01500110  RH  077%=      5-min Rain = 0
KPD1 250718Z 02006KT 15/11 A2994 RMK A01 T01500111  RH  077%=      5-min Rain = 0
KPD1 250719Z 02008KT 15/11 A2994 RMK A01 T01490110  RH  078%=      5-min Rain = 0
KPD1 250720Z 01006KT 15/11 A2994 RMK A01 T01490111  RH  078%=      5-min Rain = 0
KPD1 250721Z 36006KT 15/11 A2994 RMK A01 T01480111  RH  078%=      5-min Rain = 0
KPD1 250722Z 35006KT 15/11 A2995 RMK A01 T01480112  RH  079%=      5-min Rain = 0
KPD1 250723Z 00005KT 15/11 A2995 RMK A01 T01470113  RH  080%=      5-min Rain = 0
KPD1 250724Z 04003KT 15/11 A2995 RMK A01 T01460113  RH  080%=      5-min Rain = 0
KPD1 250725Z 03004KT 15/11 A2995 RMK A01 T01460113  RH  081%=      5-min Rain = 0
KPD1 250726Z 00003KT 15/11 A2994 RMK A01 T01460114  RH  081%=      5-min Rain = 0
KPD1 250727Z 03004KT 15/11 A2994 RMK A01 T01450114  RH  081%=      5-min Rain = 0
KPD1 250728Z 04004KT 15/11 A2994 RMK A01 T01450114  RH  082%=      5-min Rain = 0
KPD1 250729Z 04004KT 14/11 A2994 RMK A01 T01440114  RH  082%=      5-min Rain = 0
KPD1 250730Z 04004KT 14/11 A2994 RMK A01 T01440114  RH  082%=      5-min Rain = 0
KPD1 250731Z 02005KT 14/12 A2994 RMK A01 T01440115  RH  083%=      5-min Rain = 0
KPD1 250732Z 01006KT 14/12 A2994 RMK A01 T01440115  RH  083%=      5-min Rain = 0
KPD1 250733Z 01006KT 14/12 A2994 RMK A01 T01440115  RH  083%=      5-min Rain = 0
KPD1 250734Z 02004KT 14/11 A2994 RMK A01 T01430114  RH  083%=      5-min Rain = 0
KPD1 250735Z 03004KT 14/12 A2994 RMK A01 T01430115  RH  083%=      5-min Rain = 0
KPD1 250736Z 03005KT 14/12 A2995 RMK A01 T01430115  RH  083%=      5-min Rain = 0
KPD1 250737Z 02005KT 14/12 A2995 RMK A01 T01430115  RH  083%=      5-min Rain = 0
KPD1 250738Z 02006KT 14/11 A2995 RMK A01 T01430114  RH  083%=      5-min Rain = 0
KPD1 250739Z 03006KT 14/12 A2995 RMK A01 T01430115  RH  083%=      5-min Rain = 0
KPD1 250740Z 01006KT 14/12 A2995 RMK A01 T01430115  RH  083%=      5-min Rain = 0
KPD1 250741Z 02005KT 14/12 A2995 RMK A01 T01420115  RH  084%=      5-min Rain = 0
KPD1 250742Z 01007KT 14/12 A2995 RMK A01 T01420115  RH  084%=      5-min Rain = 0
KPD1 250743Z 01009KT 14/12 A2995 RMK A01 T01420115  RH  084%=      5-min Rain = 0
KPD1 250744Z 00007KT 14/12 A2995 RMK A01 T01420116  RH  084%=      5-min Rain = 0
KPD1 250745Z 00006KT 14/12 A2995 RMK A01 T01410116  RH  085%=      5-min Rain = 0
KPD1 250746Z 01007KT 14/12 A2995 RMK A01 T01410116  RH  085%=      5-min Rain = 0
KPD1 250747Z 01008KT 14/12 A2996 RMK A01 T01410116  RH  085%=      5-min Rain = 0
KPD1 250748Z 02004KT 14/12 A2996 RMK A01 T01410116  RH  085%=      5-min Rain = 0
KPD1 250749Z 03005KT 14/12 A2995 RMK A01 T01410116  RH  085%=      5-min Rain = 0
KPD1 250750Z 03007KT 14/12 A2995 RMK A01 T01410116  RH  085%=      5-min Rain = 0
KPD1 250751Z 03005KT 14/12 A2995 RMK A01 T01410116  RH  085%=      5-min Rain = 0
KPD1 250752Z 04004KT 14/12 A2995 RMK A01 T01410116  RH  085%=      5-min Rain = 0
KPD1 250753Z 02005KT 14/12 A2995 RMK A01 T01410116  RH  085%=      5-min Rain = 0
KPD1 250754Z 01006KT 14/12 A2995 RMK A01 T01410116  RH  085%=      5-min Rain = 0
KPD1 250755Z 02004KT 14/12 A2995 RMK A01 T01410116  RH  085%=      5-min Rain = 0
KPD1 250756Z 02003KT 14/12 A2995 RMK A01 T01410116  RH  085%=      5-min Rain = 0
KPD1 250757Z 02004KT 14/12 A2995 RMK A01 T01410116  RH  085%=      5-min Rain = 0
KPD1 250758Z 01004KT 14/12 A2995 RMK A01 T01410116  RH  085%=      5-min Rain = 0
KPD1 250759Z 00004KT 14/12 A2995 RMK A01 T01400116  RH  085%=      5-min Rain = 0
KPD1 250800Z 01004KT 14/12 A2995 RMK A01 T01400116  RH  085%=      5-min Rain = 0
KPD1 250801Z 00005KT 14/12 A2995 RMK A01 T01400116  RH  085%=      5-min Rain = 0
KPD1 250802Z 00005KT 14/12 A2995 RMK A01 T01400116  RH  085%=      5-min Rain = 0
KPD1 250803Z 36005KT 14/12 A2995 RMK A01 T01400116  RH  085%=      5-min Rain = 0
KPD1 250804Z 35006KT 14/12 A2995 RMK A01 T01400116  RH  085%=      5-min Rain = 0
KPD1 250805Z 35006KT 14/12 A2995 RMK A01 T01400116  RH  086%=      5-min Rain = 0
KPD1 250806Z 35005KT 14/12 A2995 RMK A01 T01390116  RH  086%=      5-min Rain = 0
KPD1 250807Z 35006KT 14/12 A2994 RMK A01 T01400116  RH  086%=      5-min Rain = 0
KPD1 250808Z 36005KT 14/12 A2994 RMK A01 T01400117  RH  086%=      5-min Rain = 0
KPD1 250809Z 36005KT 14/12 A2994 RMK A01 T01390117  RH  086%=      5-min Rain = 0
KPD1 250810Z 36006KT 14/12 A2994 RMK A01 T01400117  RH  086%=      5-min Rain = 0
KPD1 250811Z 36006KT 14/12 A2994 RMK A01 T01400117  RH  086%=      5-min Rain = 0
KPD1 250812Z 36006KT 14/12 A2994 RMK A01 T01390117  RH  086%=      5-min Rain = 0
KPD1 250813Z 36006KT 14/12 A2994 RMK A01 T01390117  RH  086%=      5-min Rain = 0
KPD1 250814Z 35007KT 14/12 A2994 RMK A01 T01390117  RH  086%=      5-min Rain = 0
KPD1 250815Z 35007KT 14/12 A2994 RMK A01 T01390117  RH  087%=      5-min Rain = 0
KPD1 250816Z 35008KT 14/12 A2994 RMK A01 T01390117  RH  087%=      5-min Rain = 0
KPD1 250817Z 35008KT 14/12 A2994 RMK A01 T01390117  RH  087%=      5-min Rain = 0
KPD1 250818Z 36008KT 14/12 A2994 RMK A01 T01390117  RH  087%=      5-min Rain = 0
KPD1 250819Z 36007KT 14/12 A2994 RMK A01 T01390117  RH  087%=      5-min Rain = 0
KPD1 250820Z 36007KT 14/12 A2994 RMK A01 T01390117  RH  086%=      5-min Rain = 0
KPD1 250821Z 01007KT 14/12 A2994 RMK A01 T01400117  RH  086%=      5-min Rain = 0
KPD1 250822Z 36005KT 14/12 A2994 RMK A01 T01400117  RH  086%=      5-min Rain = 0
KPD1 250823Z 36007KT 14/12 A2994 RMK A01 T01390116  RH  086%=      5-min Rain = 0
KPD1 250824Z 35007KT 14/12 A2994 RMK A01 T01390116  RH  086%=      5-min Rain = 0
KPD1 250825Z 34007KT 14/12 A2994 RMK A01 T01400116  RH  086%=      5-min Rain = 0
KPD1 250826Z 00007KT 14/12 A2994 RMK A01 T01390116  RH  086%=      5-min Rain = 0
KPD1 250827Z 35008KT 14/12 A2994 RMK A01 T01390116  RH  086%=      5-min Rain = 0
KPD1 250828Z 35007KT 14/12 A2994 RMK A01 T01400116  RH  086%=      5-min Rain = 0
KPD1 250829Z 36006KT 14/12 A2993 RMK A01 T01400116  RH  085%=      5-min Rain = 0
KPD1 250830Z 35008KT 14/12 A2993 RMK A01 T01400116  RH  085%=      5-min Rain = 0
KPD1 250831Z 34006KT 14/12 A2993 RMK A01 T01400116  RH  085%=      5-min Rain = 0
KPD1 250832Z 35007KT 14/12 A2993 RMK A01 T01400116  RH  085%=      5-min Rain = 0
KPD1 250833Z 36009KT 14/12 A2993 RMK A01 T01400116  RH  085%=      5-min Rain = 0
KPD1 250834Z 35009KT 14/12 A2993 RMK A01 T01400116  RH  085%=      5-min Rain = 0
KPD1 250835Z 34010KT 14/12 A2994 RMK A01 T01400115  RH  085%=      5-min Rain = 0
KPD1 250836Z 34010KT 14/12 A2994 RMK A01 T01400115  RH  085%=      5-min Rain = 0
KPD1 250837Z 35008KT 14/12 A2994 RMK A01 T01400115  RH  085%=      5-min Rain = 0
KPD1 250838Z 34008KT 14/12 A2993 RMK A01 T01410116  RH  085%=      5-min Rain = 0
KPD1 250839Z 35008KT 14/12 A2993 RMK A01 T01410115  RH  085%=      5-min Rain = 0
KPD1 250840Z 35008KT 14/12 A2993 RMK A01 T01400115  RH  085%=      5-min Rain = 0
KPD1 250841Z 35008KT 14/12 A2993 RMK A01 T01400115  RH  085%=      5-min Rain = 0
KPD1 250842Z 35007KT 14/12 A2993 RMK A01 T01400115  RH  085%=      5-min Rain = 0
KPD1 250843Z 35006KT 14/12 A2994 RMK A01 T01410116  RH  085%=      5-min Rain = 0
KPD1 250844Z 36008KT 14/12 A2994 RMK A01 T01410115  RH  085%=      5-min Rain = 0
KPD1 250845Z 00007KT 14/12 A2994 RMK A01 T01410116  RH  085%=      5-min Rain = 0
KPD1 250846Z 35006KT 14/12 A2994 RMK A01 T01420116  RH  084%=      5-min Rain = 0
KPD1 250847Z 34007KT 14/12 A2994 RMK A01 T01420115  RH  084%=      5-min Rain = 0
KPD1 250848Z 35007KT 14/12 A2993 RMK A01 T01420115  RH  084%=      5-min Rain = 0
KPD1 250849Z 33007KT 14/12 A2993 RMK A01 T01420115  RH  084%=      5-min Rain = 0
KPD1 250850Z 34006KT 14/12 A2993 RMK A01 T01430115  RH  083%=      5-min Rain = 0
KPD1 250851Z 35006KT 14/12 A2993 RMK A01 T01430115  RH  083%=      5-min Rain = 0
KPD1 250852Z 35006KT 14/12 A2993 RMK A01 T01430115  RH  083%=      5-min Rain = 0
KPD1 250853Z 34006KT 14/12 A2993 RMK A01 T01430115  RH  083%=      5-min Rain = 0
KPD1 250854Z 34006KT 14/11 A2993 RMK A01 T01430114  RH  083%=      5-min Rain = 0
KPD1 250855Z 35007KT 14/12 A2993 RMK A01 T01430115  RH  083%=      5-min Rain = 0
KPD1 250856Z 35008KT 14/12 A2993 RMK A01 T01440115  RH  083%=      5-min Rain = 0
KPD1 250857Z 34009KT 14/12 A2993 RMK A01 T01440115  RH  083%=      5-min Rain = 0
KPD1 250858Z 34009KT 14/12 A2993 RMK A01 T01440115  RH  083%=      5-min Rain = 0
KPD1 250859Z 34007KT 14/11 A2993 RMK A01 T01440114  RH  082%=      5-min Rain = 0
KPD1 250900Z 34010KT 14/11 A2993 RMK A01 T01440114  RH  082%=      5-min Rain = 0
KPD1 250901Z 34009KT 14/11 A2993 RMK A01 T01440114  RH  082%=      5-min Rain = 0
KPD1 250902Z 34010KT 14/11 A2994 RMK A01 T01440112  RH  081%=      5-min Rain = 0
KPD1 250903Z 34012KT 14/11 A2994 RMK A01 T01440110  RH  080%=      5-min Rain = 0
KPD1 250904Z 34010KT 14/11 A2994 RMK A01 T01440109  RH  079%=      5-min Rain = 0
KPD1 250905Z 35011KT 14/11 A2994 RMK A01 T01440107  RH  078%=      5-min Rain = 0
KPD1 250906Z 34009KT 15/11 A2994 RMK A01 T01450107  RH  078%=      5-min Rain = 0
KPD1 250907Z 34007KT 15/11 A2994 RMK A01 T01450106  RH  078%=      5-min Rain = 0
KPD1 250908Z 34008KT 14/11 A2994 RMK A01 T01440106  RH  078%=      5-min Rain = 0
KPD1 250909Z 34011KT 14/10 A2994 RMK A01 T01440104  RH  077%=      5-min Rain = 0
KPD1 250910Z 35012KT 14/10 A2994 RMK A01 T01440099  RH  075%=      5-min Rain = 0
KPD1 250911Z 35011KT 14/10 A2994 RMK A01 T01430095  RH  073%=      5-min Rain = 0
KPD1 250912Z 36008KT 14/09 A2994 RMK A01 T01430094  RH  072%=      5-min Rain = 0
KPD1 250913Z 00006KT 14/09 A2994 RMK A01 T01420093  RH  072%=      5-min Rain = 0
KPD1 250914Z 35008KT 14/09 A2994 RMK A01 T01420093  RH  072%=      5-min Rain = 0
KPD1 250915Z 35008KT 14/09 A2994 RMK A01 T01420091  RH  072%=      5-min Rain = 0
KPD1 250916Z 35010KT 14/09 A2994 RMK A01 T01420090  RH  071%=      5-min Rain = 0
KPD1 250917Z 34010KT 14/09 A2994 RMK A01 T01410087  RH  070%=      5-min Rain = 0
KPD1 250918Z 33013G19KT 14/09 A2994 RMK A01 T01410086  RH  069%=      5-min Rain = 0
KPD1 250919Z 34009KT 14/08 A2994 RMK A01 T01410084  RH  069%=      5-min Rain = 0
KPD1 250920Z 34014G20KT 14/08 A2994 RMK A01 T01410084  RH  068%=      5-min Rain = 0
KPD1 250921Z 35014KT 14/08 A2994 RMK A01 T01410082  RH  068%=      5-min Rain = 0
KPD1 250922Z 34010KT 14/08 A2994 RMK A01 T01410082  RH  067%=      5-min Rain = 0
KPD1 250923Z 35010KT 14/08 A2994 RMK A01 T01410082  RH  067%=      5-min Rain = 0
KPD1 250924Z 34012G17KT 14/08 A2994 RMK A01 T01410081  RH  067%=      5-min Rain = 0
KPD1 250925Z 34013G18KT 14/08 A2994 RMK A01 T01410080  RH  067%=      5-min Rain = 0
KPD1 250926Z 34008KT 14/08 A2994 RMK A01 T01410079  RH  066%=      5-min Rain = 0
KPD1 250927Z 34010KT 14/08 A2994 RMK A01 T01410079  RH  066%=      5-min Rain = 0
KPD1 250928Z 34013KT 14/08 A2994 RMK A01 T01410079  RH  066%=      5-min Rain = 0
KPD1 250929Z 34012KT 14/08 A2995 RMK A01 T01410078  RH  066%=      5-min Rain = 0
KPD1 250930Z 35011KT 14/08 A2995 RMK A01 T01410077  RH  065%=      5-min Rain = 0
KPD1 250931Z 34011KT 14/08 A2995 RMK A01 T01400077  RH  066%=      5-min Rain = 0
KPD1 250932Z 34011G17KT 14/08 A2995 RMK A01 T01400077  RH  065%=      5-min Rain = 0
KPD1 250933Z 34014G21KT 14/08 A2995 RMK A01 T01400076  RH  065%=      5-min Rain = 0
KPD1 250934Z 34015KT 14/08 A2995 RMK A01 T01410075  RH  064%=      5-min Rain = 0
KPD1 250935Z 34012G18KT 14/07 A2995 RMK A01 T01400074  RH  064%=      5-min Rain = 0
KPD1 250936Z 35016KT 14/07 A2995 RMK A01 T01400074  RH  064%=      5-min Rain = 0
KPD1 250937Z 34015KT 14/07 A2995 RMK A01 T01400073  RH  064%=      5-min Rain = 0
KPD1 250938Z 34014G21KT 14/07 A2995 RMK A01 T01400072  RH  064%=      5-min Rain = 0
KPD1 250939Z 34015G20KT 14/07 A2995 RMK A01 T01400072  RH  064%=      5-min Rain = 0
KPD1 250940Z 35012G20KT 14/07 A2995 RMK A01 T01390071  RH  063%=      5-min Rain = 0
KPD1 250941Z 35014G20KT 14/07 A2995 RMK A01 T01390070  RH  063%=      5-min Rain = 0
KPD1 250942Z 35012G17KT 14/07 A2995 RMK A01 T01380069  RH  063%=      5-min Rain = 0
KPD1 250943Z 34015G20KT 14/07 A2995 RMK A01 T01380069  RH  063%=      5-min Rain = 0
KPD1 250944Z 34015G21KT 14/07 A2995 RMK A01 T01370068  RH  063%=      5-min Rain = 0
KPD1 250945Z 34015G21KT 14/07 A2994 RMK A01 T01360068  RH  063%=      5-min Rain = 0
KPD1 250946Z 34015G20KT 14/07 A2995 RMK A01 T01350068  RH  064%=      5-min Rain = 0
KPD1 250947Z 35014G19KT 14/07 A2995 RMK A01 T01350068  RH  064%=      5-min Rain = 0
KPD1 250948Z 35009KT 13/07 A2995 RMK A01 T01340068  RH  064%=      5-min Rain = 0
KPD1 250949Z 35013G21KT 13/07 A2995 RMK A01 T01340068  RH  064%=      5-min Rain = 0
KPD1 250950Z 35012KT 13/07 A2994 RMK A01 T01340068  RH  064%=      5-min Rain = 0
KPD1 250951Z 35015G22KT 13/07 A2994 RMK A01 T01340068  RH  064%=      5-min Rain = 0
KPD1 250952Z 35013G22KT 13/07 A2994 RMK A01 T01330068  RH  065%=      5-min Rain = 0
KPD1 250953Z 34015G20KT 13/07 A2994 RMK A01 T01330068  RH  065%=      5-min Rain = 0
KPD1 250954Z 35014G19KT 13/07 A2994 RMK A01 T01330068  RH  065%=      5-min Rain = 0
KPD1 250955Z 35015G20KT 13/07 A2994 RMK A01 T01320068  RH  065%=      5-min Rain = 0
KPD1 250956Z 35015KT 13/07 A2994 RMK A01 T01320068  RH  065%=      5-min Rain = 0
KPD1 250957Z 34014KT 13/07 A2994 RMK A01 T01320069  RH  065%=      5-min Rain = 0
KPD1 250958Z 35013G19KT 13/07 A2994 RMK A01 T01320068  RH  065%=      5-min Rain = 0
KPD1 250959Z 35012G17KT 13/07 A2994 RMK A01 T01320068  RH  065%=      5-min Rain = 0
KPD1 251000Z 34013G19KT 13/07 A2994 RMK A01 T01320068  RH  065%=      5-min Rain = 0
KPD1 251001Z 34016KT 13/07 A2994 RMK A01 T01320069  RH  066%=      5-min Rain = 0
KPD1 251002Z 35015KT 13/07 A2994 RMK A01 T01310068  RH  066%=      5-min Rain = 0
KPD1 251003Z 35013KT 13/07 A2994 RMK A01 T01310068  RH  066%=      5-min Rain = 0
KPD1 251004Z 36013G18KT 13/07 A2994 RMK A01 T01310069  RH  066%=      5-min Rain = 0
KPD1 251005Z 35014G20KT 13/07 A2994 RMK A01 T01310069  RH  066%=      5-min Rain = 0
KPD1 251006Z 35012G17KT 13/07 A2994 RMK A01 T01310069  RH  066%=      5-min Rain = 0
KPD1 251007Z 35014KT 13/07 A2994 RMK A01 T01310069  RH  066%=      5-min Rain = 0
KPD1 251008Z 35011G16KT 13/07 A2994 RMK A01 T01310069  RH  066%=      5-min Rain = 0
KPD1 251009Z 36015KT 13/07 A2994 RMK A01 T01310069  RH  066%=      5-min Rain = 0
KPD1 251010Z 35013G19KT 13/07 A2994 RMK A01 T01300069  RH  066%=      5-min Rain = 0
KPD1 251011Z 35016G21KT 13/07 A2994 RMK A01 T01300069  RH  066%=      5-min Rain = 0
KPD1 251012Z 35012KT 13/07 A2994 RMK A01 T01300069  RH  066%=      5-min Rain = 0
KPD1 251013Z 35013KT 13/07 A2994 RMK A01 T01300069  RH  066%=      5-min Rain = 0
KPD1 251014Z 34014G19KT 13/07 A2994 RMK A01 T01300069  RH  066%=      5-min Rain = 0
KPD1 251015Z 35015G20KT 13/07 A2994 RMK A01 T01300069  RH  067%=      5-min Rain = 0
KPD1 251016Z 34011KT 13/07 A2994 RMK A01 T01300070  RH  067%=      5-min Rain = 0
KPD1 251017Z 35012KT 13/07 A2994 RMK A01 T01300070  RH  067%=      5-min Rain = 0
KPD1 251018Z 35012KT 13/07 A2994 RMK A01 T01300069  RH  067%=      5-min Rain = 0
KPD1 251019Z 35015G21KT 13/07 A2994 RMK A01 T01300069  RH  067%=      5-min Rain = 0
KPD1 251020Z 35016KT 13/07 A2994 RMK A01 T01290069  RH  067%=      5-min Rain = 0
KPD1 251021Z 35014KT 13/07 A2994 RMK A01 T01290069  RH  067%=      5-min Rain = 0
KPD1 251022Z 34012KT 13/07 A2994 RMK A01 T01300070  RH  067%=      5-min Rain = 0
KPD1 251023Z 34012KT 13/07 A2994 RMK A01 T01290070  RH  067%=      5-min Rain = 0
KPD1 251024Z 34013KT 13/07 A2994 RMK A01 T01290069  RH  067%=      5-min Rain = 0
KPD1 251025Z 34013KT 13/07 A2994 RMK A01 T01290070  RH  067%=      5-min Rain = 0
KPD1 251026Z 34012G17KT 13/07 A2994 RMK A01 T01290070  RH  067%=      5-min Rain = 0
KPD1 251027Z 34014G19KT 13/07 A2994 RMK A01 T01290070  RH  067%=      5-min Rain = 0
KPD1 251028Z 34014KT 13/07 A2994 RMK A01 T01290070  RH  067%=      5-min Rain = 0
KPD1 251029Z 34011KT 13/07 A2994 RMK A01 T01280070  RH  068%=      5-min Rain = 0
KPD1 251030Z 34015KT 13/07 A2994 RMK A01 T01280070  RH  068%=      5-min Rain = 0
KPD1 251031Z 34013KT 13/07 A2994 RMK A01 T01280070  RH  068%=      5-min Rain = 0
KPD1 251032Z 34014G20KT 13/07 A2994 RMK A01 T01280071  RH  068%=      5-min Rain = 0
KPD1 251033Z 35013KT 13/07 A2994 RMK A01 T01280071  RH  068%=      5-min Rain = 0
KPD1 251034Z 35013G18KT 13/07 A2994 RMK A01 T01280071  RH  068%=      5-min Rain = 0
KPD1 251035Z 34014KT 13/07 A2994 RMK A01 T01280071  RH  068%=      5-min Rain = 0
KPD1 251036Z 34014G19KT 13/07 A2995 RMK A01 T01280071  RH  068%=      5-min Rain = 0
KPD1 251037Z 34014G19KT 13/07 A2995 RMK A01 T01280071  RH  068%=      5-min Rain = 0
KPD1 251038Z 34012KT 13/07 A2995 RMK A01 T01280071  RH  069%=      5-min Rain = 0
KPD1 251039Z 34014G19KT 13/07 A2995 RMK A01 T01270071  RH  069%=      5-min Rain = 0
KPD1 251040Z 35015KT 13/07 A2995 RMK A01 T01270071  RH  069%=      5-min Rain = 0
KPD1 251041Z 35014KT 13/07 A2995 RMK A01 T01270072  RH  069%=      5-min Rain = 0
KPD1 251042Z 35017G23KT 13/07 A2995 RMK A01 T01270072  RH  069%=      5-min Rain = 0
KPD1 251043Z 34014KT 13/07 A2995 RMK A01 T01270072  RH  069%=      5-min Rain = 0
KPD1 251044Z 34016G22KT 13/07 A2995 RMK A01 T01260072  RH  069%=      5-min Rain = 0
KPD1 251045Z 34014G20KT 13/07 A2995 RMK A01 T01260072  RH  070%=      5-min Rain = 0
KPD1 251046Z 35011G16KT 13/07 A2995 RMK A01 T01260073  RH  070%=      5-min Rain = 0
KPD1 251047Z 36014G19KT 13/07 A2995 RMK A01 T01260072  RH  070%=      5-min Rain = 0
KPD1 251048Z 36014KT 13/07 A2995 RMK A01 T01260072  RH  070%=      5-min Rain = 0
KPD1 251049Z 36013G18KT 13/07 A2995 RMK A01 T01260073  RH  070%=      5-min Rain = 0
KPD1 251050Z 35014KT 13/07 A2995 RMK A01 T01260073  RH  070%=      5-min Rain = 0
KPD1 251051Z 35016G21KT 13/07 A2995 RMK A01 T01250073  RH  070%=      5-min Rain = 0
KPD1 251052Z 35019G24KT 13/07 A2995 RMK A01 T01250073  RH  070%=      5-min Rain = 0
KPD1 251053Z 35018G26KT 13/07 A2995 RMK A01 T01250073  RH  070%=      5-min Rain = 0
KPD1 251054Z 36020G28KT 13/07 A2995 RMK A01 T01250073  RH  071%=      5-min Rain = 0
KPD1 251055Z 01018G24KT 13/07 A2995 RMK A01 T01250073  RH  071%=      5-min Rain = 0
KPD1 251056Z 36016G21KT 13/07 A2995 RMK A01 T01250073  RH  071%=      5-min Rain = 0
KPD1 251057Z 35015KT 13/07 A2995 RMK A01 T01250073  RH  071%=      5-min Rain = 0
KPD1 251058Z 35015G21KT 13/07 A2995 RMK A01 T01250073  RH  071%=      5-min Rain = 0
KPD1 251059Z 35014G20KT 12/07 A2995 RMK A01 T01240073  RH  071%=      5-min Rain = 0
KPD1 251100Z 35015G24KT 12/07 A2995 RMK A01 T01240073  RH  071%=      5-min Rain = 0
KPD1 251101Z 34016G21KT 12/07 A2995 RMK A01 T01240073  RH  071%=      5-min Rain = 0
KPD1 251102Z 35017KT 12/07 A2995 RMK A01 T01240073  RH  071%=      5-min Rain = 0
KPD1 251103Z 35014G21KT 12/07 A2995 RMK A01 T01240073  RH  071%=      5-min Rain = 0
KPD1 251104Z 35016G21KT 12/07 A2995 RMK A01 T01240074  RH  071%=      5-min Rain = 0
KPD1 251105Z 00017G24KT 12/07 A2995 RMK A01 T01230073  RH  072%=      5-min Rain = 0
KPD1 251106Z 35014G23KT 12/07 A2995 RMK A01 T01240074  RH  072%=      5-min Rain = 0
KPD1 251107Z 35017G24KT 12/07 A2995 RMK A01 T01240074  RH  072%=      5-min Rain = 0
KPD1 251108Z 35019KT 12/07 A2995 RMK A01 T01230074  RH  072%=      5-min Rain = 0
KPD1 251109Z 36016G22KT 12/07 A2995 RMK A01 T01230074  RH  072%=      5-min Rain = 0
KPD1 251110Z 36017G23KT 12/07 A2995 RMK A01 T01230074  RH  072%=      5-min Rain = 0
KPD1 251111Z 35014G20KT 12/07 A2995 RMK A01 T01230074  RH  072%=      5-min Rain = 0
KPD1 251112Z 35015KT 12/07 A2995 RMK A01 T01230074  RH  072%=      5-min Rain = 0
KPD1 251113Z 35014G22KT 12/07 A2995 RMK A01 T01230074  RH  072%=      5-min Rain = 0
KPD1 251114Z 35016G21KT 12/07 A2995 RMK A01 T01220074  RH  072%=      5-min Rain = 0
KPD1 251115Z 34016G26KT 12/08 A2995 RMK A01 T01220075  RH  073%=      5-min Rain = 0
KPD1 251116Z 35014G22KT 12/08 A2995 RMK A01 T01220075  RH  073%=      5-min Rain = 0
KPD1 251117Z 35016KT 12/08 A2995 RMK A01 T01220075  RH  073%=      5-min Rain = 0
KPD1 251118Z 35011G17KT 12/08 A2995 RMK A01 T01220075  RH  073%=      5-min Rain = 0
KPD1 251119Z 36016G22KT 12/08 A2995 RMK A01 T01210075  RH  073%=      5-min Rain = 0
KPD1 251120Z 35015KT 12/08 A2995 RMK A01 T01210075  RH  073%=      5-min Rain = 0
KPD1 251121Z 36015G21KT 12/08 A2995 RMK A01 T01210075  RH  073%=      5-min Rain = 0
KPD1 251122Z 35016G22KT 12/08 A2995 RMK A01 T01210075  RH  074%=      5-min Rain = 0
KPD1 251123Z 36019G26KT 12/08 A2995 RMK A01 T01210075  RH  074%=      5-min Rain = 0
KPD1 251124Z 36018G23KT 12/08 A2995 RMK A01 T01210076  RH  074%=      5-min Rain = 0
KPD1 251125Z 35016KT 12/08 A2995 RMK A01 T01210076  RH  074%=      5-min Rain = 0
KPD1 251126Z 35017G22KT 12/08 A2995 RMK A01 T01210076  RH  074%=      5-min Rain = 0
KPD1 251127Z 36018G24KT 12/08 A2995 RMK A01 T01200076  RH  074%=      5-min Rain = 0
KPD1 251128Z 35016KT 12/08 A2995 RMK A01 T01200076  RH  074%=      5-min Rain = 0
KPD1 251129Z 35016G23KT 12/08 A2995 RMK A01 T01200076  RH  074%=      5-min Rain = 0
KPD1 251130Z 35019G26KT 12/08 A2995 RMK A01 T01200076  RH  074%=      5-min Rain = 0
KPD1 251131Z 35016G24KT 12/08 A2995 RMK A01 T01200076  RH  075%=      5-min Rain = 0
KPD1 251132Z 35018G24KT 12/08 A2995 RMK A01 T01200077  RH  075%=      5-min Rain = 0
KPD1 251133Z 34018G25KT 12/08 A2995 RMK A01 T01200077  RH  075%=      5-min Rain = 0
KPD1 251134Z 34017G22KT 12/08 A2995 RMK A01 T01200077  RH  075%=      5-min Rain = 0
KPD1 251135Z 35016G23KT 12/08 A2995 RMK A01 T01200077  RH  075%=      5-min Rain = 0
KPD1 251136Z 35015G23KT 12/08 A2995 RMK A01 T01200077  RH  075%=      5-min Rain = 0
KPD1 251137Z 35017G24KT 12/08 A2995 RMK A01 T01190077  RH  075%=      5-min Rain = 0
KPD1 251138Z 35018G25KT 12/08 A2995 RMK A01 T01190077  RH  075%=      5-min Rain = 0
KPD1 251139Z 34018G23KT 12/08 A2995 RMK A01 T01190077  RH  075%=      5-min Rain = 0
KPD1 251140Z 35017G24KT 12/08 A2995 RMK A01 T01190077  RH  075%=      5-min Rain = 0
KPD1 251141Z 34014G22KT 12/08 A2995 RMK A01 T01190077  RH  076%=      5-min Rain = 0
KPD1 251142Z 35012KT 12/08 A2995 RMK A01 T01190077  RH  076%=      5-min Rain = 0
KPD1 251143Z 35015G23KT 12/08 A2995 RMK A01 T01180077  RH  076%=      5-min Rain = 0
KPD1 251144Z 35016G23KT 12/08 A2995 RMK A01 T01180077  RH  076%=      5-min Rain = 0
KPD1 251145Z 35015G24KT 12/08 A2995 RMK A01 T01180077  RH  076%=      5-min Rain = 0
KPD1 251146Z 35015KT 12/08 A2995 RMK A01 T01190078  RH  076%=      5-min Rain = 0
KPD1 251147Z 35018G23KT 12/08 A2995 RMK A01 T01180078  RH  076%=      5-min Rain = 0
KPD1 251148Z 34016KT 12/08 A2995 RMK A01 T01180078  RH  076%=      5-min Rain = 0
KPD1 251149Z 35017G25KT 12/08 A2995 RMK A01 T01180078  RH  076%=      5-min Rain = 0
KPD1 251150Z 36016G23KT 12/08 A2995 RMK A01 T01180079  RH  077%=      5-min Rain = 0
KPD1 251151Z 35015G22KT 12/08 A2995 RMK A01 T01180078  RH  077%=      5-min Rain = 0
KPD1 251152Z 35020G28KT 12/08 A2995 RMK A01 T01180079  RH  077%=      5-min Rain = 0
KPD1 251153Z 35016G23KT 12/08 A2995 RMK A01 T01180079  RH  077%=      5-min Rain = 0
KPD1 251154Z 35015G22KT 12/08 A2995 RMK A01 T01180078  RH  077%=      5-min Rain = 0
KPD1 251155Z 34017G24KT 12/08 A2995 RMK A01 T01180079  RH  077%=      5-min Rain = 0
KPD1 251156Z 34016G22KT 12/08 A2995 RMK A01 T01180079  RH  077%=      5-min Rain = 0
KPD1 251157Z 35016G21KT 12/08 A2995 RMK A01 T01180079  RH  077%=      5-min Rain = 0
KPD1 251158Z 34017G24KT 12/08 A2995 RMK A01 T01180079  RH  077%=      5-min Rain = 0
KPD1 251159Z 34017G24KT 12/08 A2996 RMK A01 T01180079  RH  077%=      5-min Rain = 0
KPD1 251200Z 34012KT 12/08 A2996 RMK A01 T01190079  RH  077%=      5-min Rain = 0
KPD1 251201Z 35015G20KT 12/08 A2996 RMK A01 T01190079  RH  077%=      5-min Rain = 0
KPD1 251202Z 36012KT 12/08 A2996 RMK A01 T01190079  RH  077%=      5-min Rain = 0
KPD1 251203Z 36012G18KT 12/08 A2996 RMK A01 T01180079  RH  077%=      5-min Rain = 0
KPD1 251204Z 35011G18KT 12/08 A2996 RMK A01 T01180079  RH  077%=      5-min Rain = 0
KPD1 251205Z 35019G27KT 12/08 A2996 RMK A01 T01190080  RH  077%=      5-min Rain = 0
KPD1 251206Z 35014G19KT 12/08 A2996 RMK A01 T01180079  RH  077%=      5-min Rain = 0
KPD1 251207Z 36019G27KT 12/08 A2996 RMK A01 T01190079  RH  077%=      5-min Rain = 0
KPD1 251208Z 35015G25KT 12/08 A2996 RMK A01 T01180078  RH  076%=      5-min Rain = 0
KPD1 251209Z 35015G20KT 12/08 A2996 RMK A01 T01190079  RH  077%=      5-min Rain = 0
KPD1 251210Z 35016G23KT 12/08 A2996 RMK A01 T01190079  RH  077%=      5-min Rain = 0
KPD1 251211Z 34016G24KT 12/08 A2996 RMK A01 T01190079  RH  077%=      5-min Rain = 0
KPD1 251212Z 35016KT 12/08 A2996 RMK A01 T01190079  RH  077%=      5-min Rain = 0
KPD1 251213Z 35016G21KT 12/08 A2996 RMK A01 T01190079  RH  077%=      5-min Rain = 0
KPD1 251214Z 35013G18KT 12/08 A2996 RMK A01 T01180078  RH  077%=      5-min Rain = 0
KPD1 251215Z 35016G24KT 12/08 A2996 RMK A01 T01180078  RH  077%=      5-min Rain = 0
KPD1 251216Z 35017G24KT 12/08 A2996 RMK A01 T01180078  RH  076%=      5-min Rain = 0
KPD1 251217Z 36017G25KT 12/08 A2996 RMK A01 T01180078  RH  076%=      5-min Rain = 0
KPD1 251218Z 35016G21KT 12/08 A2996 RMK A01 T01180078  RH  076%=      5-min Rain = 0
KPD1 251219Z 35015G20KT 12/08 A2996 RMK A01 T01180078  RH  076%=      5-min Rain = 0
KPD1 251220Z 35017G22KT 12/08 A2996 RMK A01 T01180078  RH  076%=      5-min Rain = 0
KPD1 251221Z 35015G21KT 12/08 A2997 RMK A01 T01180078  RH  076%=      5-min Rain = 0
KPD1 251222Z 34017G23KT 12/08 A2997 RMK A01 T01180078  RH  076%=      5-min Rain = 0
KPD1 251223Z 34018G25KT 12/08 A2997 RMK A01 T01180078  RH  076%=      5-min Rain = 0
KPD1 251224Z 35014G22KT 12/08 A2997 RMK A01 T01180078  RH  076%=      5-min Rain = 0
KPD1 251225Z 36019G24KT 12/08 A2997 RMK A01 T01180078  RH  076%=      5-min Rain = 0
KPD1 251226Z 36017G22KT 12/08 A2997 RMK A01 T01180078  RH  076%=      5-min Rain = 0
KPD1 251227Z 35018G23KT 12/08 A2997 RMK A01 T01180078  RH  077%=      5-min Rain = 0
KPD1 251228Z 35020G26KT 12/08 A2997 RMK A01 T01180079  RH  077%=      5-min Rain = 0
KPD1 251229Z 35015G21KT 12/08 A2997 RMK A01 T01190079  RH  077%=      5-min Rain = 0
KPD1 251230Z 34018G25KT 12/08 A2997 RMK A01 T01180079  RH  077%=      5-min Rain = 0
KPD1 251231Z 34019G26KT 12/08 A2997 RMK A01 T01190079  RH  077%=      5-min Rain = 0
KPD1 251232Z 35016KT 12/08 A2997 RMK A01 T01180079  RH  077%=      5-min Rain = 0
KPD1 251233Z 34017G24KT 12/08 A2997 RMK A01 T01190080  RH  077%=      5-min Rain = 0
KPD1 251234Z 34016G23KT 12/08 A2997 RMK A01 T01190080  RH  077%=      5-min Rain = 0
KPD1 251235Z 35017G22KT 12/08 A2997 RMK A01 T01190080  RH  077%=      5-min Rain = 0
KPD1 251236Z 34013G18KT 12/08 A2997 RMK A01 T01190080  RH  077%=      5-min Rain = 0
KPD1 251237Z 35020G26KT 12/08 A2997 RMK A01 T01200080  RH  077%=      5-min Rain = 0
KPD1 251238Z 00018KT 12/08 A2997 RMK A01 T01200081  RH  077%=      5-min Rain = 0
KPD1 251239Z 35018KT 12/08 A2998 RMK A01 T01200081  RH  077%=      5-min Rain = 0
KPD1 251240Z 35016G22KT 12/08 A2998 RMK A01 T01200081  RH  077%=      5-min Rain = 0
KPD1 251241Z 35016G23KT 12/08 A2998 RMK A01 T01210081  RH  077%=      5-min Rain = 0
KPD1 251242Z 36020G25KT 12/08 A2998 RMK A01 T01210081  RH  077%=      5-min Rain = 0
KPD1 251243Z 36018G25KT 12/08 A2998 RMK A01 T01210081  RH  077%=      5-min Rain = 0
KPD1 251244Z 35019G25KT 12/08 A2997 RMK A01 T01210081  RH  077%=      5-min Rain = 0
KPD1 251245Z 35017KT 12/08 A2998 RMK A01 T01200081  RH  077%=      5-min Rain = 0
KPD1 251246Z 35015G22KT 12/08 A2998 RMK A01 T01210081  RH  077%=      5-min Rain = 0
KPD1 251247Z 35015G21KT 12/08 A2997 RMK A01 T01210081  RH  077%=      5-min Rain = 0
KPD1 251248Z 35017G24KT 12/08 A2997 RMK A01 T01210081  RH  077%=      5-min Rain = 0
KPD1 251249Z 36017KT 12/08 A2997 RMK A01 T01210081  RH  077%=      5-min Rain = 0
KPD1 251250Z 35016G23KT 12/08 A2997 RMK A01 T01210081  RH  077%=      5-min Rain = 0
KPD1 251251Z 35015G22KT 12/08 A2997 RMK A01 T01210081  RH  077%=      5-min Rain = 0
KPD1 251252Z 35017KT 12/08 A2997 RMK A01 T01210081  RH  077%=      5-min Rain = 0
KPD1 251253Z 35016KT 12/08 A2997 RMK A01 T01210081  RH  076%=      5-min Rain = 0
KPD1 251254Z 35022G28KT 12/08 A2997 RMK A01 T01210081  RH  076%=      5-min Rain = 0
KPD1 251255Z 35015G21KT 12/08 A2997 RMK A01 T01210081  RH  076%=      5-min Rain = 0
KPD1 251256Z 35016G22KT 12/08 A2997 RMK A01 T01220081  RH  076%=      5-min Rain = 0
KPD1 251257Z 35017G22KT 12/08 A2997 RMK A01 T01210081  RH  076%=      5-min Rain = 0
KPD1 251258Z 35015G20KT 12/08 A2997 RMK A01 T01220081  RH  076%=      5-min Rain = 0
KPD1 251259Z 35013KT 12/08 A2997 RMK A01 T01220082  RH  076%=      5-min Rain = 0
KPD1 251300Z 35015G23KT 12/08 A2997 RMK A01 T01220081  RH  076%=      5-min Rain = 0
KPD1 251301Z 36020KT 12/08 A2997 RMK A01 T01220081  RH  076%=      5-min Rain = 0
KPD1 251302Z 35016KT 12/08 A2997 RMK A01 T01230081  RH  076%=      5-min Rain = 0
KPD1 251303Z 34020G25KT 12/08 A2997 RMK A01 T01230081  RH  076%=      5-min Rain = 0
KPD1 251304Z 35015G23KT 12/08 A2997 RMK A01 T01230081  RH  076%=      5-min Rain = 0
KPD1 251305Z 35018G23KT 12/08 A2997 RMK A01 T01230081  RH  076%=      5-min Rain = 0
KPD1 251306Z 35016KT 12/08 A2998 RMK A01 T01230081  RH  076%=      5-min Rain = 0
KPD1 251307Z 35019G25KT 12/08 A2998 RMK A01 T01220081  RH  076%=      5-min Rain = 0
KPD1 251308Z 35017G24KT 12/08 A2998 RMK A01 T01230081  RH  076%=      5-min Rain = 0
KPD1 251309Z 36018KT 12/08 A2997 RMK A01 T01230081  RH  075%=      5-min Rain = 0
KPD1 251310Z 35018G24KT 12/08 A2997 RMK A01 T01230081  RH  075%=      5-min Rain = 0
KPD1 251311Z 35018G23KT 12/08 A2997 RMK A01 T01230081  RH  075%=      5-min Rain = 0
KPD1 251312Z 35017KT 12/08 A2997 RMK A01 T01230081  RH  075%=      5-min Rain = 0
KPD1 251313Z 35017G22KT 12/08 A2997 RMK A01 T01230081  RH  075%=      5-min Rain = 0
KPD1 251314Z 35017KT 12/08 A2998 RMK A01 T01240082  RH  075%=      5-min Rain = 0
KPD1 251315Z 34019G26KT 12/08 A2997 RMK A01 T01240081  RH  075%=      5-min Rain = 0
KPD1 251316Z 35020KT 12/08 A2997 RMK A01 T01240081  RH  075%=      5-min Rain = 0
KPD1 251317Z 36015G20KT 12/08 A2998 RMK A01 T01240082  RH  075%=      5-min Rain = 0
KPD1 251318Z 36017G23KT 12/08 A2998 RMK A01 T01240082  RH  075%=      5-min Rain = 0
KPD1 251319Z 36014KT 12/08 A2998 RMK A01 T01240082  RH  075%=      5-min Rain = 0
KPD1 251320Z 35017G22KT 12/08 A2998 RMK A01 T01240082  RH  075%=      5-min Rain = 0
KPD1 251321Z 36017KT 13/08 A2998 RMK A01 T01250082  RH  075%=      5-min Rain = 0
KPD1 251322Z 36014KT 13/08 A2998 RMK A01 T01250082  RH  075%=      5-min Rain = 0
KPD1 251323Z 35015KT 13/08 A2998 RMK A01 T01250082  RH  075%=      5-min Rain = 0
KPD1 251324Z 35014G22KT 13/08 A2997 RMK A01 T01250082  RH  075%=      5-min Rain = 0
KPD1 251325Z 00012G21KT 13/08 A2997 RMK A01 T01260082  RH  075%=      5-min Rain = 0
KPD1 251326Z 35016G21KT 13/08 A2997 RMK A01 T01260083  RH  075%=      5-min Rain = 0
KPD1 251327Z 36015G20KT 13/08 A2997 RMK A01 T01270082  RH  074%=      5-min Rain = 0
KPD1 251328Z 35013G19KT 13/08 A2997 RMK A01 T01270082  RH  074%=      5-min Rain = 0
KPD1 251329Z 35016G21KT 13/08 A2997 RMK A01 T01270082  RH  074%=      5-min Rain = 0
KPD1 251330Z 35016G25KT 13/08 A2997 RMK A01 T01270082  RH  074%=      5-min Rain = 0
KPD1 251331Z 00017KT 13/08 A2997 RMK A01 T01270081  RH  074%=      5-min Rain = 0
KPD1 251332Z 35016G22KT 13/08 A2997 RMK A01 T01270082  RH  074%=      5-min Rain = 0
KPD1 251333Z 35018KT 13/08 A2998 RMK A01 T01270081  RH  074%=      5-min Rain = 0
KPD1 251334Z 35014G21KT 13/08 A2998 RMK A01 T01270081  RH  073%=      5-min Rain = 0
KPD1 251335Z 35015G20KT 13/08 A2998 RMK A01 T01270081  RH  073%=      5-min Rain = 0
KPD1 251336Z 35015G21KT 13/08 A2998 RMK A01 T01270081  RH  073%=      5-min Rain = 0
KPD1 251337Z 35017G23KT 13/08 A2998 RMK A01 T01280081  RH  073%=      5-min Rain = 0
KPD1 251338Z 36015G21KT 13/08 A2998 RMK A01 T01280081  RH  073%=      5-min Rain = 0
KPD1 251339Z 36015KT 13/08 A2998 RMK A01 T01280081  RH  073%=      5-min Rain = 0
KPD1 251340Z 35016G22KT 13/08 A2998 RMK A01 T01290081  RH  073%=      5-min Rain = 0
KPD1 251341Z 36017G23KT 13/08 A2998 RMK A01 T01280080  RH  072%=      5-min Rain = 0
KPD1 251342Z 36016G22KT 13/08 A2998 RMK A01 T01290080  RH  072%=      5-min Rain = 0
KPD1 251343Z 35015G20KT 13/08 A2998 RMK A01 T01290080  RH  072%=      5-min Rain = 0
KPD1 251344Z 35015G21KT 13/08 A2998 RMK A01 T01290080  RH  072%=      5-min Rain = 0
KPD1 251345Z 35015KT 13/08 A2998 RMK A01 T01290080  RH  072%=      5-min Rain = 0
KPD1 251346Z 35015G21KT 13/08 A2998 RMK A01 T01290080  RH  072%=      5-min Rain = 0
KPD1 251347Z 35015G21KT 13/08 A2998 RMK A01 T01290080  RH  072%=      5-min Rain = 0
KPD1 251348Z 35015G22KT 13/08 A2998 RMK A01 T01290080  RH  072%=      5-min Rain = 0
KPD1 251349Z 00016G22KT 13/08 A2998 RMK A01 T01290080  RH  072%=      5-min Rain = 0
KPD1 251350Z 35015KT 13/08 A2999 RMK A01 T01290080  RH  072%=      5-min Rain = 0
KPD1 251351Z 35015G21KT 13/08 A2999 RMK A01 T01290079  RH  072%=      5-min Rain = 0
KPD1 251352Z 36018G23KT 13/08 A2999 RMK A01 T01290080  RH  072%=      5-min Rain = 0
KPD1 251353Z 36015KT 13/08 A2999 RMK A01 T01290079  RH  072%=      5-min Rain = 0
KPD1 251354Z 35012G17KT 13/08 A2999 RMK A01 T01290080  RH  072%=      5-min Rain = 0
KPD1 251355Z 35014G22KT 13/08 A2999 RMK A01 T01290079  RH  072%=      5-min Rain = 0
KPD1 251356Z 36013G19KT 13/08 A2999 RMK A01 T01290080  RH  072%=      5-min Rain = 0
KPD1 251357Z 36016KT 13/08 A2999 RMK A01 T01290079  RH  072%=      5-min Rain = 0
KPD1 251358Z 35014KT 13/08 A2999 RMK A01 T01300080  RH  072%=      5-min Rain = 0
KPD1 251359Z 35014G20KT 13/08 A2999 RMK A01 T01300080  RH  072%=      5-min Rain = 0
KPD1 251400Z 35014G20KT 13/08 A2999 RMK A01 T01300080  RH  071%=      5-min Rain = 0
KPD1 251401Z 35015KT 13/08 A2999 RMK A01 T01310080  RH  071%=      5-min Rain = 0
KPD1 251402Z 35015G21KT 13/08 A2999 RMK A01 T01310079  RH  071%=      5-min Rain = 0
KPD1 251403Z 35018KT 13/08 A2999 RMK A01 T01310079  RH  071%=      5-min Rain = 0
KPD1 251404Z 36017G22KT 13/08 A2999 RMK A01 T01310079  RH  071%=      5-min Rain = 0
KPD1 251405Z 36014G19KT 13/08 A2999 RMK A01 T01310079  RH  071%=      5-min Rain = 0
KPD1 251406Z 36013KT 13/08 A2999 RMK A01 T01310080  RH  071%=      5-min Rain = 0
KPD1 251407Z 00013G18KT 13/08 A2999 RMK A01 T01310080  RH  071%=      5-min Rain = 0
KPD1 251408Z 35013G19KT 13/08 A30 RMK A01 T01310080  RH  071%=      5-min Rain = 0
KPD1 251409Z 35015G21KT 13/08 A30 RMK A01 T01320080  RH  071%=      5-min Rain = 0
KPD1 251410Z 35016G22KT 13/08 A30 RMK A01 T01320079  RH  070%=      5-min Rain = 0
KPD1 251411Z 34014KT 13/08 A30 RMK A01 T01320079  RH  070%=      5-min Rain = 0
KPD1 251412Z 35012KT 13/08 A30 RMK A01 T01320079  RH  070%=      5-min Rain = 0
KPD1 251413Z 34013G18KT 13/08 A30 RMK A01 T01330080  RH  070%=      5-min Rain = 0
KPD1 251414Z 35015KT 13/08 A30 RMK A01 T01330080  RH  070%=      5-min Rain = 0
KPD1 251415Z 35014G20KT 13/08 A2999 RMK A01 T01330079  RH  070%=      5-min Rain = 0
KPD1 251416Z 36017G24KT 13/08 A30 RMK A01 T01330079  RH  070%=      5-min Rain = 0
KPD1 251417Z 35017G22KT 13/08 A30 RMK A01 T01330079  RH  070%=      5-min Rain = 0
KPD1 251418Z 35012KT 13/08 A30 RMK A01 T01330079  RH  070%=      5-min Rain = 0
KPD1 251419Z 35013KT 13/08 A30 RMK A01 T01330080  RH  070%=      5-min Rain = 0
KPD1 251420Z 35010G15KT 13/08 A30 RMK A01 T01340080  RH  070%=      5-min Rain = 0
KPD1 251421Z 35015G21KT 13/08 A30 RMK A01 T01340080  RH  070%=      5-min Rain = 0
KPD1 251422Z 35017KT 13/08 A30 RMK A01 T01340079  RH  069%=      5-min Rain = 0
KPD1 251423Z 35015G20KT 13/08 A30 RMK A01 T01340079  RH  069%=      5-min Rain = 0
KPD1 251424Z 35013G20KT 13/08 A30 RMK A01 T01330079  RH  069%=      5-min Rain = 0
KPD1 251425Z 35012G18KT 13/08 A30 RMK A01 T01340079  RH  069%=      5-min Rain = 0
KPD1 251426Z 35017G22KT 13/08 A30 RMK A01 T01340078  RH  069%=      5-min Rain = 0
KPD1 251427Z 35014KT 13/08 A30 RMK A01 T01340078  RH  069%=      5-min Rain = 0
KPD1 251428Z 35014KT 13/08 A30 RMK A01 T01340079  RH  069%=      5-min Rain = 0
KPD1 251429Z 35015KT 13/08 A30 RMK A01 T01340079  RH  069%=      5-min Rain = 0
KPD1 251430Z 36016G21KT 13/08 A30 RMK A01 T01340078  RH  069%=      5-min Rain = 0
KPD1 251431Z 35011G17KT 13/08 A30 RMK A01 T01340078  RH  069%=      5-min Rain = 0
KPD1 251432Z 35015KT 14/08 A30 RMK A01 T01350079  RH  069%=      5-min Rain = 0
KPD1 251433Z 35017KT 14/08 A30 RMK A01 T01350079  RH  069%=      5-min Rain = 0
KPD1 251434Z 35015G22KT 14/08 A30 RMK A01 T01350078  RH  068%=      5-min Rain = 0
KPD1 251435Z 35015KT 14/08 A30 RMK A01 T01350078  RH  068%=      5-min Rain = 0
KPD1 251436Z 35019G24KT 14/08 A30 RMK A01 T01350078  RH  068%=      5-min Rain = 0
KPD1 251437Z 34015G20KT 14/08 A30 RMK A01 T01350077  RH  068%=      5-min Rain = 0
KPD1 251438Z 34015G22KT 13/08 A30 RMK A01 T01340078  RH  069%=      5-min Rain = 0
KPD1 251439Z 35014KT 13/08 A30 RMK A01 T01340078  RH  069%=      5-min Rain = 0
KPD1 251440Z 35013G19KT 14/08 A30 RMK A01 T01350078  RH  068%=      5-min Rain = 0
KPD1 251441Z 35018KT 14/08 A30 RMK A01 T01350078  RH  068%=      5-min Rain = 0
KPD1 251442Z 35018G24KT 14/08 A30 RMK A01 T01350077  RH  068%=      5-min Rain = 0
KPD1 251443Z 35017KT 13/08 A30 RMK A01 T01340077  RH  068%=      5-min Rain = 0
KPD1 251444Z 35011KT 13/08 A30 RMK A01 T01340077  RH  068%=      5-min Rain = 0
KPD1 251445Z 00015G20KT 13/08 A30 RMK A01 T01340078  RH  068%=      5-min Rain = 0
KPD1 251446Z 35016KT 14/08 A30 RMK A01 T01350077  RH  068%=      5-min Rain = 0
KPD1 251447Z 00015KT 14/08 A30 RMK A01 T01350077  RH  068%=      5-min Rain = 0
KPD1 251448Z 36014KT 14/08 A30 RMK A01 T01350078  RH  068%=      5-min Rain = 0
KPD1 251449Z 00015G21KT 14/08 A30 RMK A01 T01350077  RH  068%=      5-min Rain = 0
KPD1 251450Z 01016G21KT 14/08 A30 RMK A01 T01350077  RH  068%=      5-min Rain = 0
KPD1 251451Z 35012G17KT 14/08 A30 RMK A01 T01350078  RH  068%=      5-min Rain = 0
KPD1 251452Z 35013KT 14/08 A30 RMK A01 T01350078  RH  068%=      5-min Rain = 0
KPD1 251453Z 35015KT 14/08 A30 RMK A01 T01360078  RH  068%=      5-min Rain = 0
KPD1 251454Z 35012G17KT 14/08 A30 RMK A01 T01360078  RH  068%=      5-min Rain = 0
KPD1 251455Z 35015G21KT 14/08 A30 RMK A01 T01360078  RH  068%=      5-min Rain = 0
KPD1 251456Z 36016KT 14/08 A30 RMK A01 T01360078  RH  068%=      5-min Rain = 0
KPD1 251457Z 36015KT 14/08 A3001 RMK A01 T01360078  RH  068%=      5-min Rain = 0
KPD1 251458Z 35013KT 14/08 A3001 RMK A01 T01360079  RH  068%=      5-min Rain = 0
KPD1 251459Z 35013KT 14/08 A3001 RMK A01 T01360078  RH  068%=      5-min Rain = 0
KPD1 251500Z 35014KT 14/08 A3001 RMK A01 T01360079  RH  068%=      5-min Rain = 0
KPD1 251501Z 35015KT 14/08 A3001 RMK A01 T01360078  RH  068%=      5-min Rain = 0
KPD1 251502Z 36015KT 14/08 A3001 RMK A01 T01360078  RH  068%=      5-min Rain = 0
KPD1 251503Z 00014KT 14/08 A3001 RMK A01 T01360078  RH  068%=      5-min Rain = 0
KPD1 251504Z 36014G19KT 14/08 A3001 RMK A01 T01360078  RH  068%=      5-min Rain = 0
KPD1 251505Z 34016G21KT 14/08 A3001 RMK A01 T01360078  RH  068%=      5-min Rain = 0
KPD1 251506Z 35011G17KT 14/08 A3001 RMK A01 T01360078  RH  068%=      5-min Rain = 0
KPD1 251507Z 35013G19KT 14/08 A3001 RMK A01 T01360079  RH  068%=      5-min Rain = 0
KPD1 251508Z 36015KT 14/08 A3001 RMK A01 T01360079  RH  068%=      5-min Rain = 0
KPD1 251509Z 35012G17KT 14/08 A3001 RMK A01 T01360079  RH  068%=      5-min Rain = 0
KPD1 251510Z 35010G15KT 14/08 A3002 RMK A01 T01360079  RH  068%=      5-min Rain = 0
KPD1 251511Z 35015G20KT 14/08 A3002 RMK A01 T01370080  RH  068%=      5-min Rain = 0
KPD1 251512Z 35014G19KT 14/08 A3002 RMK A01 T01370079  RH  068%=      5-min Rain = 0
KPD1 251513Z 36015G20KT 14/08 A3002 RMK A01 T01370079  RH  068%=      5-min Rain = 0
KPD1 251514Z 01014KT 14/08 A3002 RMK A01 T01370079  RH  068%=      5-min Rain = 0
KPD1 251515Z 00014KT 14/08 A3002 RMK A01 T01370079  RH  068%=      5-min Rain = 0
KPD1 251516Z 01014G19KT 14/08 A3002 RMK A01 T01370079  RH  068%=      5-min Rain = 0
KPD1 251517Z 36013G21KT 14/08 A3002 RMK A01 T01370079  RH  068%=      5-min Rain = 0
KPD1 251518Z 00015KT 14/08 A3002 RMK A01 T01370080  RH  068%=      5-min Rain = 0
KPD1 251519Z 00016KT 14/08 A3002 RMK A01 T01370079  RH  068%=      5-min Rain = 0
KPD1 251520Z 00010KT 14/08 A3002 RMK A01 T01370080  RH  068%=      5-min Rain = 0
KPD1 251521Z 34013G18KT 14/08 A3002 RMK A01 T01380080  RH  068%=      5-min Rain = 0
KPD1 251522Z 00011G16KT 14/08 A3002 RMK A01 T01380081  RH  068%=      5-min Rain = 0
KPD1 251523Z 00013KT 14/08 A3002 RMK A01 T01390080  RH  068%=      5-min Rain = 0
KPD1 251524Z 36016KT 14/08 A3002 RMK A01 T01390080  RH  068%=      5-min Rain = 0
KPD1 251525Z 35014KT 14/08 A3002 RMK A01 T01380080  RH  068%=      5-min Rain = 0
KPD1 251526Z 36014KT 14/08 A3002 RMK A01 T01380080  RH  068%=      5-min Rain = 0
KPD1 251527Z 36015KT 14/08 A3002 RMK A01 T01380080  RH  068%=      5-min Rain = 0
KPD1 251528Z 35015KT 14/08 A3002 RMK A01 T01380080  RH  068%=      5-min Rain = 0
KPD1 251529Z 00015G22KT 14/08 A3002 RMK A01 T01380080  RH  068%=      5-min Rain = 0
KPD1 251530Z 00017G22KT 14/08 A3002 RMK A01 T01380079  RH  068%=      5-min Rain = 0
KPD1 251531Z 36018G23KT 14/08 A3002 RMK A01 T01380080  RH  068%=      5-min Rain = 0
KPD1 251532Z 35012G19KT 14/08 A3002 RMK A01 T01370080  RH  068%=      5-min Rain = 0
KPD1 251533Z 36014KT 14/08 A3002 RMK A01 T01370080  RH  068%=      5-min Rain = 0
KPD1 251534Z 00012KT 14/08 A3002 RMK A01 T01380081  RH  068%=      5-min Rain = 0
KPD1 251535Z 36012KT 14/08 A3002 RMK A01 T01380080  RH  068%=      5-min Rain = 0
KPD1 251536Z 35014G20KT 14/08 A3002 RMK A01 T01390081  RH  068%=      5-min Rain = 0
KPD1 251537Z 36012G17KT 14/08 A3002 RMK A01 T01390080  RH  068%=      5-min Rain = 0
KPD1 251538Z 35013G20KT 14/08 A3002 RMK A01 T01390081  RH  068%=      5-min Rain = 0
KPD1 251539Z 35013G19KT 14/08 A3002 RMK A01 T01390081  RH  068%=      5-min Rain = 0
KPD1 251540Z 35016G22KT 14/08 A3002 RMK A01 T01390080  RH  067%=      5-min Rain = 0
KPD1 251541Z 35013G18KT 14/08 A3002 RMK A01 T01390080  RH  067%=      5-min Rain = 0
KPD1 251542Z 35012G18KT 14/08 A3002 RMK A01 T01390081  RH  068%=      5-min Rain = 0
KPD1 251543Z 35011KT 14/08 A3002 RMK A01 T01390081  RH  068%=      5-min Rain = 0
KPD1 251544Z 35012G18KT 14/08 A3002 RMK A01 T01400081  RH  067%=      5-min Rain = 0
KPD1 251545Z 35017G23KT 14/08 A3002 RMK A01 T01410081  RH  067%=      5-min Rain = 0
KPD1 251546Z 36012KT 14/08 A3002 RMK A01 T01400080  RH  067%=      5-min Rain = 0
KPD1 251547Z 34015KT 14/08 A3002 RMK A01 T01400080  RH  067%=      5-min Rain = 0
KPD1 251548Z 34017G24KT 14/08 A3002 RMK A01 T01400080  RH  067%=      5-min Rain = 0
KPD1 251549Z 35014G22KT 14/08 A3002 RMK A01 T01400080  RH  067%=      5-min Rain = 0
KPD1 251550Z 00014G19KT 14/08 A3002 RMK A01 T01390080  RH  067%=      5-min Rain = 0
KPD1 251551Z 35017KT 14/08 A3002 RMK A01 T01400080  RH  067%=      5-min Rain = 0
KPD1 251552Z 35014G20KT 14/08 A3002 RMK A01 T01390080  RH  067%=      5-min Rain = 0
KPD1 251553Z 36017G25KT 14/08 A3002 RMK A01 T01390080  RH  067%=      5-min Rain = 0
KPD1 251554Z 00013G19KT 14/08 A3002 RMK A01 T01400080  RH  067%=      5-min Rain = 0
KPD1 251555Z 00017G22KT 14/08 A3002 RMK A01 T01400080  RH  067%=      5-min Rain = 0
KPD1 251556Z 36018KT 14/08 A3002 RMK A01 T01400080  RH  067%=      5-min Rain = 0
KPD1 251557Z 00017G24KT 14/08 A3002 RMK A01 T01400080  RH  067%=      5-min Rain = 0
KPD1 251558Z 01015G21KT 14/08 A3002 RMK A01 T01400081  RH  067%=      5-min Rain = 0
KPD1 251559Z 00018G24KT 14/08 A3002 RMK A01 T01400081  RH  067%=      5-min Rain = 0
KPD1 251600Z 00016KT 14/08 A3002 RMK A01 T01410080  RH  067%=      5-min Rain = 0
KPD1 251601Z 36015KT 14/08 A3002 RMK A01 T01410081  RH  067%=      5-min Rain = 0
KPD1 251602Z 00012G17KT 14/08 A3002 RMK A01 T01430082  RH  067%=      5-min Rain = 0
KPD1 251603Z 35011G16KT 14/08 A3002 RMK A01 T01440082  RH  066%=      5-min Rain = 0
KPD1 251604Z 01012G20KT 15/08 A3002 RMK A01 T01450083  RH  066%=      5-min Rain = 0
KPD1 251605Z 01014KT 15/08 A3002 RMK A01 T01470082  RH  065%=      5-min Rain = 0
KPD1 251606Z 36013G21KT 15/08 A3002 RMK A01 T01460082  RH  065%=      5-min Rain = 0
KPD1 251607Z 01016G24KT 15/08 A3002 RMK A01 T01450082  RH  066%=      5-min Rain = 0
KPD1 251608Z 00014G19KT 15/08 A3002 RMK A01 T01460082  RH  066%=      5-min Rain = 0
KPD1 251609Z 00013KT 15/08 A3002 RMK A01 T01450082  RH  066%=      5-min Rain = 0
KPD1 251610Z 35009G16KT 15/08 A3002 RMK A01 T01460083  RH  066%=      5-min Rain = 0
KPD1 251611Z 36014G21KT 15/08 A3002 RMK A01 T01470083  RH  065%=      5-min Rain = 0
KPD1 251612Z 01015G22KT 15/08 A3002 RMK A01 T01480083  RH  065%=      5-min Rain = 0
KPD1 251613Z 36013KT 15/08 A3002 RMK A01 T01480083  RH  065%=      5-min Rain = 0
KPD1 251614Z 35015G23KT 15/08 A3002 RMK A01 T01480083  RH  065%=      5-min Rain = 0
KPD1 251615Z 35014G19KT 15/08 A3002 RMK A01 T01480083  RH  065%=      5-min Rain = 0
KPD1 251616Z 35014G20KT 15/08 A3002 RMK A01 T01490084  RH  065%=      5-min Rain = 0
KPD1 251617Z 35011KT 15/08 A3002 RMK A01 T01490083  RH  065%=      5-min Rain = 0
KPD1 251618Z 35014G19KT 15/08 A3002 RMK A01 T01490084  RH  065%=      5-min Rain = 0
KPD1 251619Z 35010KT 15/08 A3002 RMK A01 T01490083  RH  065%=      5-min Rain = 0
KPD1 251620Z 36012G20KT 15/08 A3002 RMK A01 T01490084  RH  065%=      5-min Rain = 0
KPD1 251621Z 35015KT 15/08 A3002 RMK A01 T01500084  RH  064%=      5-min Rain = 0
KPD1 251622Z 35012KT 15/08 A3002 RMK A01 T01500084  RH  065%=      5-min Rain = 0
KPD1 251623Z 00011KT 15/08 A3003 RMK A01 T01500084  RH  065%=      5-min Rain = 0
KPD1 251624Z 36015KT 15/08 A3003 RMK A01 T01500084  RH  065%=      5-min Rain = 0
KPD1 251625Z 36013KT 15/08 A3002 RMK A01 T01500084  RH  064%=      5-min Rain = 0
KPD1 251626Z 35014G19KT 15/08 A3003 RMK A01 T01500084  RH  065%=      5-min Rain = 0
KPD1 251627Z 36012G18KT 15/08 A3002 RMK A01 T01490084  RH  065%=      5-min Rain = 0
KPD1 251628Z 36015G21KT 15/08 A3003 RMK A01 T01490084  RH  065%=      5-min Rain = 0
KPD1 251629Z 36015G21KT 15/08 A3003 RMK A01 T01490084  RH  065%=      5-min Rain = 0
KPD1 251630Z 36015G22KT 15/08 A3003 RMK A01 T01490084  RH  065%=      5-min Rain = 0
KPD1 251631Z 00009KT 15/08 A3003 RMK A01 T01480084  RH  065%=      5-min Rain = 0
KPD1 251632Z 00013KT 15/09 A3003 RMK A01 T01490085  RH  066%=      5-min Rain = 0
KPD1 251633Z 00013G19KT 15/09 A3003 RMK A01 T01500085  RH  065%=      5-min Rain = 0
KPD1 251634Z 00014G20KT 15/08 A3003 RMK A01 T01500084  RH  065%=      5-min Rain = 0
KPD1 251635Z 36010KT 15/08 A3003 RMK A01 T01490084  RH  065%=      5-min Rain = 0
KPD1 251636Z 36014G19KT 15/09 A3003 RMK A01 T01500086  RH  065%=      5-min Rain = 0
KPD1 251637Z 36014KT 15/08 A3003 RMK A01 T01500084  RH  065%=      5-min Rain = 0
KPD1 251638Z 01010G18KT 15/08 A3003 RMK A01 T01490084  RH  065%=      5-min Rain = 0
KPD1 251639Z 01012KT 15/09 A3003 RMK A01 T01490085  RH  065%=      5-min Rain = 0
KPD1 251640Z 00011KT 15/09 A3003 RMK A01 T01500086  RH  065%=      5-min Rain = 0
KPD1 251641Z 35009G14KT 15/09 A3003 RMK A01 T01510086  RH  065%=      5-min Rain = 0
KPD1 251642Z 35013G19KT 15/09 A3003 RMK A01 T01520087  RH  065%=      5-min Rain = 0
KPD1 251643Z 00011G18KT 15/09 A3003 RMK A01 T01530086  RH  064%=      5-min Rain = 0
KPD1 251644Z 01018KT 15/09 A3003 RMK A01 T01530086  RH  064%=      5-min Rain = 0
KPD1 251645Z 00015KT 15/09 A3003 RMK A01 T01520085  RH  064%=      5-min Rain = 0
KPD1 251646Z 35014KT 15/09 A3003 RMK A01 T01510085  RH  065%=      5-min Rain = 0
KPD1 251647Z 35016G25KT 15/09 A3003 RMK A01 T01500086  RH  065%=      5-min Rain = 0
KPD1 251648Z 36017G22KT 15/09 A3003 RMK A01 T01510086  RH  065%=      5-min Rain = 0
KPD1 251649Z 00015G20KT 15/09 A3003 RMK A01 T01510085  RH  065%=      5-min Rain = 0
KPD1 251650Z 01016G22KT 15/09 A3003 RMK A01 T01510085  RH  065%=      5-min Rain = 0
KPD1 251651Z 01018G24KT 15/09 A3003 RMK A01 T01500085  RH  065%=      5-min Rain = 0
KPD1 251652Z 01013G19KT 15/09 A3003 RMK A01 T01490085  RH  065%=      5-min Rain = 0
KPD1 251653Z 01013KT 15/09 A3003 RMK A01 T01500086  RH  065%=      5-min Rain = 0
KPD1 251654Z 00010KT 15/09 A3003 RMK A01 T01510086  RH  065%=      5-min Rain = 0
KPD1 251655Z 36016KT 15/09 A3003 RMK A01 T01530087  RH  065%=      5-min Rain = 0
KPD1 251656Z 01015G22KT 15/09 A3003 RMK A01 T01540087  RH  064%=      5-min Rain = 0
KPD1 251657Z 01018G23KT 15/09 A3003 RMK A01 T01540086  RH  064%=      5-min Rain = 0
KPD1 251658Z 36016G22KT 15/09 A3003 RMK A01 T01530086  RH  064%=      5-min Rain = 0
KPD1 251659Z 01014G19KT 15/09 A3003 RMK A01 T01530086  RH  064%=      5-min Rain = 0
KPD1 251700Z 01016G21KT 15/09 A3003 RMK A01 T01540087  RH  064%=      5-min Rain = 0
KPD1 251701Z 01015G20KT 15/09 A3003 RMK A01 T01540087  RH  064%=      5-min Rain = 0
KPD1 251702Z 00013G18KT 15/09 A3003 RMK A01 T01540087  RH  064%=      5-min Rain = 0
KPD1 251703Z 35012G17KT 16/09 A3003 RMK A01 T01550088  RH  064%=      5-min Rain = 0
KPD1 251704Z 36015KT 16/09 A3002 RMK A01 T01580090  RH  064%=      5-min Rain = 0
KPD1 251705Z 36014G21KT 16/09 A3002 RMK A01 T01590089  RH  063%=      5-min Rain = 0
KPD1 251706Z 35012KT 16/09 A3002 RMK A01 T01600089  RH  063%=      5-min Rain = 0
KPD1 251707Z 00012G18KT 16/09 A3002 RMK A01 T01610089  RH  062%=      5-min Rain = 0
KPD1 251708Z 34013KT 16/09 A3002 RMK A01 T01630091  RH  062%=      5-min Rain = 0
KPD1 251709Z 36015G20KT 17/09 A3002 RMK A01 T01650090  RH  061%=      5-min Rain = 0
KPD1 251710Z 36017G22KT 17/09 A3002 RMK A01 T01650089  RH  061%=      5-min Rain = 0
KPD1 251711Z 35018KT 16/09 A3002 RMK A01 T01630088  RH  061%=      5-min Rain = 0
KPD1 251712Z 00019G25KT 16/09 A3002 RMK A01 T01620088  RH  061%=      5-min Rain = 0
KPD1 251713Z 36018KT 16/09 A3002 RMK A01 T01610088  RH  062%=      5-min Rain = 0
KPD1 251714Z 01015KT 16/09 A3002 RMK A01 T01600088  RH  062%=      5-min Rain = 0
KPD1 251715Z 00015G25KT 16/09 A3002 RMK A01 T01600088  RH  062%=      5-min Rain = 0
KPD1 251716Z 36017G22KT 16/09 A3002 RMK A01 T01620089  RH  062%=      5-min Rain = 0
KPD1 251717Z 35016KT 16/09 A3002 RMK A01 T01640090  RH  062%=      5-min Rain = 0
KPD1 251718Z 36013KT 17/09 A3002 RMK A01 T01670092  RH  061%=      5-min Rain = 0
KPD1 251719Z 01012G17KT 17/10 A3002 RMK A01 T01730095  RH  060%=      5-min Rain = 0
KPD1 251720Z 36016KT 18/09 A3002 RMK A01 T01760094  RH  058%=      5-min Rain = 0
KPD1 251721Z 36019KT 18/09 A3002 RMK A01 T01750091  RH  058%=      5-min Rain = 0
KPD1 251722Z 35015G21KT 17/09 A3002 RMK A01 T01700089  RH  059%=      5-min Rain = 0
KPD1 251723Z 35015G21KT 17/09 A3002 RMK A01 T01680089  RH  060%=      5-min Rain = 0
KPD1 251724Z 00013G19KT 17/09 A3002 RMK A01 T01680091  RH  060%=      5-min Rain = 0
KPD1 251725Z 02013G19KT 17/09 A3002 RMK A01 T01700091  RH  060%=      5-min Rain = 0
KPD1 251726Z 00014G21KT 17/09 A3002 RMK A01 T01690090  RH  059%=      5-min Rain = 0
KPD1 251727Z 01014G19KT 17/09 A3002 RMK A01 T01680091  RH  060%=      5-min Rain = 0
KPD1 251728Z 02016KT 17/09 A3002 RMK A01 T01690091  RH  060%=      5-min Rain = 0
KPD1 251729Z 01014KT 17/09 A3002 RMK A01 T01690091  RH  060%=      5-min Rain = 0
KPD1 251730Z 01017G26KT 17/09 A3003 RMK A01 T01700091  RH  060%=      5-min Rain = 0
KPD1 251731Z 00019KT 17/09 A3003 RMK A01 T01690090  RH  059%=      5-min Rain = 0
KPD1 251732Z 35013G20KT 17/09 A3002 RMK A01 T01670091  RH  060%=      5-min Rain = 0
KPD1 251733Z 35016G26KT 17/09 A3002 RMK A01 T01700093  RH  060%=      5-min Rain = 0
KPD1 251734Z 35013G18KT 17/09 A3002 RMK A01 T01710092  RH  059%=      5-min Rain = 0
KPD1 251735Z 00015KT 17/09 A3002 RMK A01 T01710091  RH  059%=      5-min Rain = 0
KPD1 251736Z 35016G25KT 17/09 A3002 RMK A01 T01710091  RH  059%=      5-min Rain = 0
KPD1 251737Z 01016G25KT 17/09 A3002 RMK A01 T01710091  RH  059%=      5-min Rain = 0
KPD1 251738Z 00011KT 17/09 A3002 RMK A01 T01690090  RH  060%=      5-min Rain = 0
KPD1 251739Z 01015G20KT 17/09 A3002 RMK A01 T01690092  RH  060%=      5-min Rain = 0
KPD1 251740Z 01013G24KT 17/09 A3002 RMK A01 T01700091  RH  060%=      5-min Rain = 0
KPD1 251741Z 01018KT 17/09 A3002 RMK A01 T01700091  RH  060%=      5-min Rain = 0
KPD1 251742Z 01015KT 17/09 A3002 RMK A01 T01700092  RH  060%=      5-min Rain = 0
KPD1 251743Z 01017G24KT 17/09 A3002 RMK A01 T01710092  RH  060%=      5-min Rain = 0
KPD1 251744Z 01020G27KT 17/09 A3002 RMK A01 T01720092  RH  059%=      5-min Rain = 0
KPD1 251745Z 01020G26KT 17/09 A3002 RMK A01 T01710091  RH  059%=      5-min Rain = 0
KPD1 251746Z 01014KT 17/09 A3002 RMK A01 T01690091  RH  060%=      5-min Rain = 0
KPD1 251747Z 35016G26KT 17/09 A3002 RMK A01 T01700093  RH  060%=      5-min Rain = 0
KPD1 251748Z 36017G23KT 17/09 A3002 RMK A01 T01720092  RH  060%=      5-min Rain = 0
KPD1 251749Z 35017G22KT 17/09 A3002 RMK A01 T01720092  RH  059%=      5-min Rain = 0
KPD1 251750Z 00015G20KT 17/09 A3002 RMK A01 T01720092  RH  059%=      5-min Rain = 0
KPD1 251751Z 35013KT 17/09 A3002 RMK A01 T01730092  RH  059%=      5-min Rain = 0
KPD1 251752Z 00016KT 17/09 A3002 RMK A01 T01730092  RH  059%=      5-min Rain = 0
KPD1 251753Z 01010G16KT 17/09 A3002 RMK A01 T01730092  RH  059%=      5-min Rain = 0
KPD1 251754Z 00016G22KT 17/09 A3002 RMK A01 T01730092  RH  059%=      5-min Rain = 0
KPD1 251755Z 35014G19KT 17/09 A3002 RMK A01 T01730093  RH  059%=      5-min Rain = 0
KPD1 251756Z 36019KT 17/09 A3002 RMK A01 T01740092  RH  059%=      5-min Rain = 0
KPD1 251757Z 36015KT 17/09 A3002 RMK A01 T01730091  RH  058%=      5-min Rain = 0
KPD1 251758Z 35015G20KT 17/09 A3002 RMK A01 T01720093  RH  059%=      5-min Rain = 0
KPD1 251759Z 36015G20KT 17/09 A3002 RMK A01 T01740093  RH  059%=      5-min Rain = 0
KPD1 251800Z 36019G24KT 18/09 A3002 RMK A01 T01750093  RH  058%=      5-min Rain = 0
KPD1 251801Z 35017G24KT 18/09 A3002 RMK A01 T01750092  RH  058%=      5-min Rain = 0
KPD1 251802Z 36018G23KT 17/09 A3002 RMK A01 T01740091  RH  058%=      5-min Rain = 0
KPD1 251803Z 36018KT 17/09 A3002 RMK A01 T01720091  RH  059%=      5-min Rain = 0
KPD1 251804Z 00014KT 17/09 A3002 RMK A01 T01720091  RH  059%=      5-min Rain = 0
KPD1 251805Z 36013G19KT 17/09 A3002 RMK A01 T01710091  RH  059%=      5-min Rain = 0
KPD1 251806Z 36012G17KT 17/09 A3002 RMK A01 T01740093  RH  059%=      5-min Rain = 0
KPD1 251807Z 00010G19KT 18/10 A3002 RMK A01 T01790097  RH  059%=      5-min Rain = 0
KPD1 251808Z 36016KT 18/10 A3002 RMK A01 T01840096  RH  057%=      5-min Rain = 0
KPD1 251809Z 01016KT 18/09 A3002 RMK A01 T01830093  RH  056%=      5-min Rain = 0
KPD1 251810Z 02020KT 18/09 A3002 RMK A01 T01810092  RH  056%=      5-min Rain = 0
KPD1 251811Z 01014G19KT 18/09 A3002 RMK A01 T01790092  RH  057%=      5-min Rain = 0
KPD1 251812Z 01013G22KT 18/09 A3002 RMK A01 T01790092  RH  057%=      5-min Rain = 0
KPD1 251813Z 02014G21KT 18/09 A3002 RMK A01 T01790093  RH  057%=      5-min Rain = 0
KPD1 251814Z 01018G27KT 18/09 A3002 RMK A01 T01780091  RH  057%=      5-min Rain = 0
KPD1 251815Z 03009G14KT 18/09 A3002 RMK A01 T01760091  RH  057%=      5-min Rain = 0
KPD1 251816Z 01011G18KT 18/09 A3002 RMK A01 T01760093  RH  058%=      5-min Rain = 0
KPD1 251817Z 01013KT 18/09 A3002 RMK A01 T01780092  RH  057%=      5-min Rain = 0
KPD1 251818Z 35015G22KT 18/09 A3002 RMK A01 T01780093  RH  057%=      5-min Rain = 0
KPD1 251819Z 00017G24KT 18/09 A3002 RMK A01 T01780093  RH  057%=      5-min Rain = 0
KPD1 251820Z 00012G18KT 18/09 A3002 RMK A01 T01800094  RH  057%=      5-min Rain = 0
KPD1 251821Z 36012KT 18/10 A3002 RMK A01 T01820095  RH  057%=      5-min Rain = 0
KPD1 251822Z 35015G22KT 19/10 A3002 RMK A01 T01850095  RH  056%=      5-min Rain = 0
KPD1 251823Z 36017G23KT 18/09 A3002 RMK A01 T01840093  RH  055%=      5-min Rain = 0
KPD1 251824Z 35017G22KT 18/09 A3002 RMK A01 T01810092  RH  056%=      5-min Rain = 0
KPD1 251825Z 35012G17KT 18/09 A3002 RMK A01 T01780092  RH  057%=      5-min Rain = 0
KPD1 251826Z 35016G21KT 18/09 A3002 RMK A01 T01800094  RH  057%=      5-min Rain = 0
KPD1 251827Z 36018G24KT 18/09 A3001 RMK A01 T01820093  RH  056%=      5-min Rain = 0
KPD1 251828Z 01016G23KT 18/09 A3002 RMK A01 T01810093  RH  056%=      5-min Rain = 0
KPD1 251829Z 02016G21KT 18/09 A3001 RMK A01 T01810093  RH  056%=      5-min Rain = 0
KPD1 251830Z 01014G21KT 18/09 A3001 RMK A01 T01800094  RH  057%=      5-min Rain = 0
KPD1 251831Z 01016G24KT 18/09 A3001 RMK A01 T01830094  RH  056%=      5-min Rain = 0
KPD1 251832Z 03014G24KT 19/10 A3001 RMK A01 T01860095  RH  055%=      5-min Rain = 0
KPD1 251833Z 01015G20KT 19/09 A3001 RMK A01 T01850093  RH  055%=      5-min Rain = 0
KPD1 251834Z 02016G24KT 18/09 A3002 RMK A01 T01840093  RH  055%=      5-min Rain = 0
KPD1 251835Z 01015G22KT 18/09 A3001 RMK A01 T01830093  RH  056%=      5-min Rain = 0
KPD1 251836Z 02014G22KT 18/09 A3001 RMK A01 T01820092  RH  056%=      5-min Rain = 0
KPD1 251837Z 02009KT 18/09 A3001 RMK A01 T01810093  RH  056%=      5-min Rain = 0
KPD1 251838Z 02012G17KT 18/09 A3001 RMK A01 T01820092  RH  056%=      5-min Rain = 0
KPD1 251839Z 01017KT 18/09 A3002 RMK A01 T01810092  RH  056%=      5-min Rain = 0
KPD1 251840Z 01014G21KT 18/09 A3002 RMK A01 T01810092  RH  056%=      5-min Rain = 0
KPD1 251841Z 03015G21KT 18/09 A3001 RMK A01 T01820092  RH  056%=      5-min Rain = 0
KPD1 251842Z 02013G20KT 18/09 A3001 RMK A01 T01800091  RH  056%=      5-min Rain = 0
KPD1 251843Z 03010G18KT 18/09 A3001 RMK A01 T01800094  RH  057%=      5-min Rain = 0
KPD1 251844Z 03011G17KT 18/09 A3001 RMK A01 T01840094  RH  056%=      5-min Rain = 0
KPD1 251845Z 00012KT 19/09 A3001 RMK A01 T01850094  RH  056%=      5-min Rain = 0
KPD1 251846Z 01011KT 19/09 A3001 RMK A01 T01880094  RH  055%=      5-min Rain = 0
KPD1 251847Z 36010KT 19/09 A3001 RMK A01 T01870094  RH  055%=      5-min Rain = 0
KPD1 251848Z 00010KT 19/10 A3001 RMK A01 T01890095  RH  054%=      5-min Rain = 0
KPD1 251849Z 01011G19KT 19/10 A3001 RMK A01 T01910096  RH  054%=      5-min Rain = 0
KPD1 251850Z 01017G24KT 19/10 A3001 RMK A01 T01920095  RH  053%=      5-min Rain = 0
KPD1 251851Z 02016KT 19/09 A3001 RMK A01 T01920093  RH  053%=      5-min Rain = 0
KPD1 251852Z 01016G23KT 19/09 A3001 RMK A01 T01880091  RH  053%=      5-min Rain = 0
KPD1 251853Z 01013G18KT 19/09 A3001 RMK A01 T01860092  RH  054%=      5-min Rain = 0
KPD1 251854Z 02017G25KT 19/10 A3001 RMK A01 T01900095  RH  054%=      5-min Rain = 0
KPD1 251855Z 00013G18KT 19/10 A3001 RMK A01 T01930095  RH  053%=      5-min Rain = 0
KPD1 251856Z 01009G15KT 20/10 A3001 RMK A01 T01960096  RH  052%=      5-min Rain = 0
KPD1 251857Z 01016G22KT 20/09 A3001 RMK A01 T01970094  RH  051%=      5-min Rain = 0
KPD1 251858Z 01015G20KT 20/09 A3001 RMK A01 T01960092  RH  051%=      5-min Rain = 0
KPD1 251859Z 01011KT 19/09 A3001 RMK A01 T01940093  RH  052%=      5-min Rain = 0
KPD1 251900Z 02013G18KT 20/09 A3001 RMK A01 T01950094  RH  052%=      5-min Rain = 0
KPD1 251901Z 00014G20KT 20/09 A3001 RMK A01 T01950093  RH  052%=      5-min Rain = 0
KPD1 251902Z 01015KT 19/09 A3001 RMK A01 T01940093  RH  052%=      5-min Rain = 0
KPD1 251903Z 01017KT 19/09 A3001 RMK A01 T01940093  RH  052%=      5-min Rain = 0
KPD1 251904Z 01017G22KT 20/09 A3001 RMK A01 T01950093  RH  052%=      5-min Rain = 0
KPD1 251905Z 01013G22KT 20/09 A3001 RMK A01 T01960093  RH  051%=      5-min Rain = 0
KPD1 251906Z 02012G20KT 19/09 A3001 RMK A01 T01940093  RH  052%=      5-min Rain = 0
KPD1 251907Z 01014KT 20/09 A3001 RMK A01 T01950093  RH  052%=      5-min Rain = 0
KPD1 251908Z 36013G18KT 19/09 A3001 RMK A01 T01940092  RH  052%=      5-min Rain = 0
KPD1 251909Z 35016G23KT 19/09 A3001 RMK A01 T01940093  RH  052%=      5-min Rain = 0
KPD1 251910Z 00014G22KT 20/09 A3001 RMK A01 T01950092  RH  051%=      5-min Rain = 0
KPD1 251911Z 36012KT 19/09 A3001 RMK A01 T01940092  RH  052%=      5-min Rain = 0
KPD1 251912Z 35012G19KT 19/09 A3001 RMK A01 T01940092  RH  052%=      5-min Rain = 0
KPD1 251913Z 00011G18KT 20/09 A3001 RMK A01 T01950092  RH  051%=      5-min Rain = 0
KPD1 251914Z 36015G24KT 20/09 A3001 RMK A01 T01950093  RH  052%=      5-min Rain = 0
KPD1 251915Z 36013G18KT 20/09 A3001 RMK A01 T01960092  RH  051%=      5-min Rain = 0
KPD1 251916Z 01016KT 20/09 A3001 RMK A01 T01980094  RH  051%=      5-min Rain = 0
KPD1 251917Z 00013KT 20/09 A3001 RMK A01 T01990093  RH  050%=      5-min Rain = 0
KPD1 251918Z 35015G24KT 20/09 A3001 RMK A01 T01990092  RH  050%=      5-min Rain = 0
KPD1 251919Z 00020G26KT 20/09 A3001 RMK A01 T01970090  RH  050%=      5-min Rain = 0
KPD1 251920Z 36018KT 19/09 A3001 RMK A01 T01940090  RH  051%=      5-min Rain = 0
KPD1 251921Z 36016G23KT 19/09 A3001 RMK A01 T01930090  RH  051%=      5-min Rain = 0
KPD1 251922Z 01014KT 19/09 A3001 RMK A01 T01930090  RH  051%=      5-min Rain = 0
KPD1 251923Z 02013G21KT 19/09 A3001 RMK A01 T01920090  RH  052%=      5-min Rain = 0
KPD1 251924Z 00014KT 19/09 A3001 RMK A01 T01900089  RH  052%=      5-min Rain = 0
KPD1 251925Z 02013G18KT 19/09 A3001 RMK A01 T01900090  RH  052%=      5-min Rain = 0
KPD1 251926Z 02013G18KT 19/09 A3001 RMK A01 T01900090  RH  052%=      5-min Rain = 0
KPD1 251927Z 36012KT 19/09 A3001 RMK A01 T01900090  RH  052%=      5-min Rain = 0
KPD1 251928Z 35012G19KT 19/09 A3001 RMK A01 T01900091  RH  052%=      5-min Rain = 0
KPD1 251929Z 36012G18KT 19/09 A3001 RMK A01 T01890089  RH  052%=      5-min Rain = 0
KPD1 251930Z 35014G20KT 19/09 A3001 RMK A01 T01880090  RH  053%=      5-min Rain = 0
KPD1 251931Z 35011G16KT 19/09 A3001 RMK A01 T01880091  RH  053%=      5-min Rain = 0
KPD1 251932Z 36014G19KT 19/09 A3001 RMK A01 T01890091  RH  053%=      5-min Rain = 0
KPD1 251933Z 35010KT 19/09 A3001 RMK A01 T01900091  RH  052%=      5-min Rain = 0
KPD1 251934Z 01013KT 19/09 A3001 RMK A01 T01910091  RH  052%=      5-min Rain = 0
KPD1 251935Z 01011KT 19/09 A3001 RMK A01 T01910091  RH  052%=      5-min Rain = 0
KPD1 251936Z 01010KT 19/09 A3001 RMK A01 T01910091  RH  052%=      5-min Rain = 0
KPD1 251937Z 01013KT 19/09 A3001 RMK A01 T01900091  RH  052%=      5-min Rain = 0
KPD1 251938Z 00009KT 19/09 A3001 RMK A01 T01910091  RH  052%=      5-min Rain = 0
KPD1 251939Z 35015KT 19/09 A3001 RMK A01 T01940093  RH  052%=      5-min Rain = 0
KPD1 251940Z 36016G24KT 20/09 A3001 RMK A01 T01960091  RH  051%=      5-min Rain = 0
KPD1 251941Z 36016G22KT 19/09 A3001 RMK A01 T01940090  RH  051%=      5-min Rain = 0
KPD1 251942Z 35015G20KT 19/09 A3001 RMK A01 T01930090  RH  051%=      5-min Rain = 0
KPD1 251943Z 36010KT 19/09 A3001 RMK A01 T01920090  RH  052%=      5-min Rain = 0
KPD1 251944Z 01013G18KT 19/09 A3001 RMK A01 T01920091  RH  052%=      5-min Rain = 0
KPD1 251945Z 01009KT 19/09 A3001 RMK A01 T01910089  RH  052%=      5-min Rain = 0
KPD1 251946Z 36012G17KT 19/09 A3001 RMK A01 T01890090  RH  052%=      5-min Rain = 0
KPD1 251947Z 36012G18KT 19/09 A3001 RMK A01 T01900091  RH  052%=      5-min Rain = 0
KPD1 251948Z 34014G20KT 19/09 A3001 RMK A01 T01920091  RH  052%=      5-min Rain = 0
KPD1 251949Z 35012G18KT 19/09 A3001 RMK A01 T01910091  RH  052%=      5-min Rain = 0
KPD1 251950Z 35014KT 19/09 A3001 RMK A01 T01910091  RH  052%=      5-min Rain = 0
KPD1 251951Z 35010G17KT 19/09 A3001 RMK A01 T01910091  RH  052%=      5-min Rain = 0
KPD1 251952Z 00014G21KT 19/09 A3001 RMK A01 T01920091  RH  052%=      5-min Rain = 0
KPD1 251953Z 00012KT 19/09 A3001 RMK A01 T01900090  RH  052%=      5-min Rain = 0
KPD1 251954Z 35012G18KT 19/09 A3001 RMK A01 T01890090  RH  053%=      5-min Rain = 0
KPD1 251955Z 35015KT 19/09 A3001 RMK A01 T01880091  RH  053%=      5-min Rain = 0
KPD1 251956Z 36013G18KT 19/09 A3002 RMK A01 T01880090  RH  053%=      5-min Rain = 0
KPD1 251957Z 36014G20KT 19/09 A3001 RMK A01 T01860089  RH  053%=      5-min Rain = 0
KPD1 251958Z 36013G19KT 18/09 A3001 RMK A01 T01840089  RH  054%=      5-min Rain = 0
KPD1 251959Z 35014KT 18/09 A3002 RMK A01 T01830089  RH  054%=      5-min Rain = 0
KPD1 252000Z 00011G16KT 18/09 A3002 RMK A01 T01830089  RH  054%=      5-min Rain = 0
KPD1 252001Z 34010KT 18/09 A3002 RMK A01 T01830090  RH  055%=      5-min Rain = 0
KPD1 252002Z 36009KT 18/09 A3002 RMK A01 T01830090  RH  054%=      5-min Rain = 0
KPD1 252003Z 36010KT 18/09 A3002 RMK A01 T01840090  RH  054%=      5-min Rain = 0
KPD1 252004Z 35011G16KT 18/09 A3002 RMK A01 T01840090  RH  054%=      5-min Rain = 0
KPD1 252005Z 36013KT 18/09 A3002 RMK A01 T01840090  RH  054%=      5-min Rain = 0
KPD1 252006Z 02012KT 19/09 A3002 RMK A01 T01850090  RH  054%=      5-min Rain = 0
KPD1 252007Z 35013G18KT 18/09 A3002 RMK A01 T01840089  RH  054%=      5-min Rain = 0
KPD1 252008Z 35013KT 18/09 A3002 RMK A01 T01830089  RH  054%=      5-min Rain = 0
KPD1 252009Z 00015KT 18/09 A3002 RMK A01 T01820088  RH  054%=      5-min Rain = 0
KPD1 252010Z 01013KT 18/09 A3002 RMK A01 T01800088  RH  055%=      5-min Rain = 0
KPD1 252011Z 35013G21KT 18/09 A3002 RMK A01 T01800088  RH  055%=      5-min Rain = 0
KPD1 252012Z 36009KT 18/09 A3002 RMK A01 T01800089  RH  055%=      5-min Rain = 0
KPD1 252013Z 35010KT 18/09 A3002 RMK A01 T01800089  RH  055%=      5-min Rain = 0
KPD1 252014Z 35012KT 18/09 A3002 RMK A01 T01800089  RH  055%=      5-min Rain = 0
KPD1 252015Z 00013G19KT 18/09 A3002 RMK A01 T01800089  RH  055%=      5-min Rain = 0
KPD1 252016Z 01013G18KT 18/09 A3002 RMK A01 T01790088  RH  055%=      5-min Rain = 0
KPD1 252017Z 34012G18KT 18/09 A3002 RMK A01 T01780088  RH  055%=      5-min Rain = 0
KPD1 252018Z 35009KT 18/09 A3002 RMK A01 T01780089  RH  056%=      5-min Rain = 0
KPD1 252019Z 35014KT 18/09 A3002 RMK A01 T01780089  RH  056%=      5-min Rain = 0
KPD1 252020Z 35013G19KT 18/09 A3002 RMK A01 T01790088  RH  055%=      5-min Rain = 0
KPD1 252021Z 34015KT 18/09 A3002 RMK A01 T01770087  RH  055%=      5-min Rain = 0
KPD1 252022Z 34013KT 18/09 A3002 RMK A01 T01760087  RH  056%=      5-min Rain = 0
KPD1 252023Z 34012G18KT 18/09 A3002 RMK A01 T01750087  RH  056%=      5-min Rain = 0
KPD1 252024Z 00012KT 18/09 A3002 RMK A01 T01750086  RH  056%=      5-min Rain = 0
KPD1 252025Z 34014G20KT 18/09 A3002 RMK A01 T01750087  RH  056%=      5-min Rain = 0
KPD1 252026Z 35012G19KT 18/09 A3002 RMK A01 T01760087  RH  056%=      5-min Rain = 0
KPD1 252027Z 35012KT 18/09 A3002 RMK A01 T01760087  RH  056%=      5-min Rain = 0
KPD1 252028Z 35013G18KT 18/09 A3002 RMK A01 T01760086  RH  056%=      5-min Rain = 0
KPD1 252029Z 35014KT 18/09 A3002 RMK A01 T01760087  RH  056%=      5-min Rain = 0
KPD1 252030Z 34014G19KT 18/09 A3002 RMK A01 T01760087  RH  056%=      5-min Rain = 0
KPD1 252031Z 36016KT 18/09 A3002 RMK A01 T01760086  RH  056%=      5-min Rain = 0
KPD1 252032Z 00014KT 18/09 A3002 RMK A01 T01750086  RH  056%=      5-min Rain = 0
KPD1 252033Z 35014G19KT 18/09 A3002 RMK A01 T01750086  RH  056%=      5-min Rain = 0
KPD1 252034Z 35013KT 18/09 A3002 RMK A01 T01750086  RH  056%=      5-min Rain = 0
KPD1 252035Z 35016G22KT 18/09 A3002 RMK A01 T01750087  RH  056%=      5-min Rain = 0
KPD1 252036Z 34015G21KT 18/09 A3002 RMK A01 T01760087  RH  056%=      5-min Rain = 0
KPD1 252037Z 35015KT 18/09 A3002 RMK A01 T01750087  RH  056%=      5-min Rain = 0
KPD1 252038Z 34014G20KT 18/09 A3002 RMK A01 T01750087  RH  056%=      5-min Rain = 0
KPD1 252039Z 35012G17KT 17/09 A3002 RMK A01 T01740087  RH  057%=      5-min Rain = 0
KPD1 252040Z 35012G20KT 17/09 A3002 RMK A01 T01730087  RH  057%=      5-min Rain = 0
KPD1 252041Z 34013G18KT 17/09 A3002 RMK A01 T01740087  RH  057%=      5-min Rain = 0
KPD1 252042Z 34016KT 17/09 A3002 RMK A01 T01740087  RH  057%=      5-min Rain = 0
KPD1 252043Z 35014KT 17/09 A3002 RMK A01 T01730086  RH  057%=      5-min Rain = 0
KPD1 252044Z 35014G20KT 17/09 A3002 RMK A01 T01720086  RH  057%=      5-min Rain = 0
KPD1 252045Z 35011KT 17/09 A3002 RMK A01 T01720086  RH  057%=      5-min Rain = 0
KPD1 252046Z 35011KT 17/09 A3002 RMK A01 T01720087  RH  057%=      5-min Rain = 0
KPD1 252047Z 00010KT 17/09 A3003 RMK A01 T01730087  RH  057%=      5-min Rain = 0
KPD1 252048Z 36011G16KT 17/09 A3003 RMK A01 T01730087  RH  057%=      5-min Rain = 0
KPD1 252049Z 36014G19KT 17/09 A3003 RMK A01 T01730086  RH  056%=      5-min Rain = 0
KPD1 252050Z 35014KT 17/09 A3003 RMK A01 T01730086  RH  056%=      5-min Rain = 0
KPD1 252051Z 35013KT 17/09 A3003 RMK A01 T01720086  RH  057%=      5-min Rain = 0
KPD1 252052Z 00014KT 17/09 A3003 RMK A01 T01720086  RH  057%=      5-min Rain = 0
KPD1 252053Z 35013KT 17/09 A3003 RMK A01 T01720086  RH  057%=      5-min Rain = 0
KPD1 252054Z 35015KT 17/09 A3003 RMK A01 T01710085  RH  057%=      5-min Rain = 0
KPD1 252055Z 35013KT 17/09 A3003 RMK A01 T01710085  RH  057%=      5-min Rain = 0
KPD1 252056Z 34015KT 17/09 A3003 RMK A01 T01710086  RH  057%=      5-min Rain = 0
KPD1 252057Z 34016KT 17/09 A3003 RMK A01 T01710086  RH  057%=      5-min Rain = 0
KPD1 252058Z 34014G19KT 17/09 A3003 RMK A01 T01700085  RH  057%=      5-min Rain = 0
KPD1 252059Z 34016KT 17/09 A3002 RMK A01 T01700085  RH  057%=      5-min Rain = 0
KPD1 252100Z 34015G20KT 17/09 A3003 RMK A01 T01700085  RH  057%=      5-min Rain = 0
KPD1 252101Z 34015KT 17/09 A3002 RMK A01 T01690085  RH  058%=      5-min Rain = 0
KPD1 252102Z 34013G18KT 17/09 A3002 RMK A01 T01690085  RH  058%=      5-min Rain = 0
KPD1 252103Z 34010G15KT 17/09 A3002 RMK A01 T01690085  RH  058%=      5-min Rain = 0
KPD1 252104Z 35013KT 17/09 A3002 RMK A01 T01690086  RH  058%=      5-min Rain = 0
KPD1 252105Z 35011G17KT 17/09 A3002 RMK A01 T01700086  RH  057%=      5-min Rain = 0
KPD1 252106Z 35011G16KT 17/09 A3002 RMK A01 T01690085  RH  057%=      5-min Rain = 0
KPD1 252107Z 35013KT 17/09 A3002 RMK A01 T01700086  RH  057%=      5-min Rain = 0
KPD1 252108Z 36011G17KT 17/09 A3002 RMK A01 T01700085  RH  057%=      5-min Rain = 0
KPD1 252109Z 00012G19KT 17/09 A3002 RMK A01 T01700085  RH  057%=      5-min Rain = 0
KPD1 252110Z 01012G17KT 17/09 A3002 RMK A01 T01700085  RH  057%=      5-min Rain = 0
KPD1 252111Z 36015KT 17/09 A3002 RMK A01 T01700085  RH  057%=      5-min Rain = 0
KPD1 252112Z 00013G18KT 17/09 A3001 RMK A01 T01700085  RH  057%=      5-min Rain = 0
KPD1 252113Z 35012G17KT 17/09 A3001 RMK A01 T01700085  RH  057%=      5-min Rain = 0
KPD1 252114Z 35014KT 17/09 A3001 RMK A01 T01700085  RH  057%=      5-min Rain = 0
KPD1 252115Z 00017KT 17/08 A3001 RMK A01 T01690084  RH  057%=      5-min Rain = 0
KPD1 252116Z 00016KT 17/08 A3001 RMK A01 T01680084  RH  057%=      5-min Rain = 0
KPD1 252117Z 36015G20KT 17/08 A3001 RMK A01 T01680084  RH  058%=      5-min Rain = 0
KPD1 252118Z 00016G21KT 17/08 A3001 RMK A01 T01670084  RH  058%=      5-min Rain = 0
KPD1 252119Z 00012KT 17/08 A3001 RMK A01 T01670084  RH  058%=      5-min Rain = 0
KPD1 252120Z 36013KT 17/08 A3001 RMK A01 T01660084  RH  058%=      5-min Rain = 0
KPD1 252121Z 36019KT 17/08 A3001 RMK A01 T01660084  RH  058%=      5-min Rain = 0
KPD1 252122Z 36015KT 17/08 A30 RMK A01 T01670084  RH  058%=      5-min Rain = 0
KPD1 252123Z 35010KT 17/08 A30 RMK A01 T01660084  RH  058%=      5-min Rain = 0
KPD1 252124Z 35013KT 17/08 A30 RMK A01 T01660084  RH  058%=      5-min Rain = 0
KPD1 252125Z 00011KT 17/08 A30 RMK A01 T01660084  RH  058%=      5-min Rain = 0
KPD1 252126Z 01013G19KT 17/08 A30 RMK A01 T01660084  RH  058%=      5-min Rain = 0
KPD1 252127Z 01015KT 17/08 A30 RMK A01 T01660083  RH  058%=      5-min Rain = 0
KPD1 252128Z 01015KT 17/08 A30 RMK A01 T01660083  RH  058%=      5-min Rain = 0
KPD1 252129Z 36014G20KT 17/08 A3001 RMK A01 T01660084  RH  058%=      5-min Rain = 0
KPD1 252130Z 35014G19KT 17/08 A3001 RMK A01 T01660083  RH  058%=      5-min Rain = 0
KPD1 252131Z 35012G17KT 17/08 A3001 RMK A01 T01660083  RH  058%=      5-min Rain = 0
KPD1 252132Z 36014KT 17/08 A3001 RMK A01 T01670083  RH  058%=      5-min Rain = 0
KPD1 252133Z 35012G17KT 17/08 A3001 RMK A01 T01670083  RH  058%=      5-min Rain = 0
KPD1 252134Z 34013KT 17/08 A3001 RMK A01 T01670083  RH  058%=      5-min Rain = 0
KPD1 252135Z 36011G17KT 17/08 A3001 RMK A01 T01670083  RH  057%=      5-min Rain = 0
KPD1 252136Z 35013KT 17/08 A3001 RMK A01 T01670083  RH  057%=      5-min Rain = 0
KPD1 252137Z 35012KT 17/08 A3001 RMK A01 T01670082  RH  057%=      5-min Rain = 0
KPD1 252138Z 35010KT 17/08 A3001 RMK A01 T01670082  RH  057%=      5-min Rain = 0
KPD1 252139Z 35008G15KT 17/08 A3001 RMK A01 T01670082  RH  057%=      5-min Rain = 0
KPD1 252140Z 35010KT 17/08 A3001 RMK A01 T01670082  RH  057%=      5-min Rain = 0
KPD1 252141Z 35011KT 17/08 A3001 RMK A01 T01670082  RH  057%=      5-min Rain = 0
KPD1 252142Z 35013KT 17/08 A3001 RMK A01 T01680082  RH  057%=      5-min Rain = 0
KPD1 252143Z 34013G18KT 17/08 A3001 RMK A01 T01670082  RH  057%=      5-min Rain = 0
KPD1 252144Z 34013KT 17/08 A3001 RMK A01 T01670081  RH  057%=      5-min Rain = 0
KPD1 252145Z 35013KT 17/08 A3001 RMK A01 T01660081  RH  057%=      5-min Rain = 0
KPD1 252146Z 35012G17KT 17/08 A3002 RMK A01 T01660081  RH  057%=      5-min Rain = 0
KPD1 252147Z 35011KT 17/08 A3002 RMK A01 T01660081  RH  057%=      5-min Rain = 0
KPD1 252148Z 35010G15KT 17/08 A3002 RMK A01 T01660081  RH  057%=      5-min Rain = 0
KPD1 252149Z 35011KT 17/08 A3002 RMK A01 T01660082  RH  057%=      5-min Rain = 0
KPD1 252150Z 36012KT 17/08 A3002 RMK A01 T01660081  RH  057%=      5-min Rain = 0
KPD1 252151Z 35010G15KT 17/08 A3002 RMK A01 T01660081  RH  057%=      5-min Rain = 0
KPD1 252152Z 35012KT 17/08 A3002 RMK A01 T01660081  RH  057%=      5-min Rain = 0
KPD1 252153Z 35014G19KT 17/08 A3002 RMK A01 T01660081  RH  057%=      5-min Rain = 0
KPD1 252154Z 36015KT 17/08 A3002 RMK A01 T01670081  RH  057%=      5-min Rain = 0
KPD1 252155Z 35012KT 17/08 A3002 RMK A01 T01670081  RH  057%=      5-min Rain = 0
KPD1 252156Z 35014KT 17/08 A3002 RMK A01 T01670081  RH  057%=      5-min Rain = 0
KPD1 252157Z 34011KT 17/08 A3002 RMK A01 T01670081  RH  057%=      5-min Rain = 0
KPD1 252158Z 35015KT 17/08 A3002 RMK A01 T01670081  RH  057%=      5-min Rain = 0
KPD1 252159Z 00015KT 17/08 A3002 RMK A01 T01670081  RH  057%=      5-min Rain = 0
KPD1 252200Z 36012KT 17/08 A3002 RMK A01 T01660081  RH  057%=      5-min Rain = 0
KPD1 252201Z 35013KT 17/08 A3002 RMK A01 T01660081  RH  057%=      5-min Rain = 0
KPD1 252202Z 35010G15KT 17/08 A3002 RMK A01 T01660082  RH  057%=      5-min Rain = 0
KPD1 252203Z 34015G20KT 17/08 A3002 RMK A01 T01670082  RH  057%=      5-min Rain = 0
KPD1 252204Z 34013KT 17/08 A3002 RMK A01 T01680082  RH  057%=      5-min Rain = 0
KPD1 252205Z 36010G16KT 17/08 A3002 RMK A01 T01670082  RH  057%=      5-min Rain = 0
KPD1 252206Z 35012KT 17/08 A3002 RMK A01 T01680083  RH  057%=      5-min Rain = 0
KPD1 252207Z 34011KT 17/08 A3002 RMK A01 T01680083  RH  057%=      5-min Rain = 0
KPD1 252208Z 34010KT 17/08 A3002 RMK A01 T01680083  RH  057%=      5-min Rain = 0
KPD1 252209Z 34010G16KT 17/08 A3002 RMK A01 T01690083  RH  057%=      5-min Rain = 0
KPD1 252210Z 34013KT 17/08 A3002 RMK A01 T01690083  RH  057%=      5-min Rain = 0
KPD1 252211Z 34010KT 17/08 A3002 RMK A01 T01690084  RH  057%=      5-min Rain = 0
KPD1 252212Z 34011KT 17/08 A3002 RMK A01 T01690083  RH  057%=      5-min Rain = 0
KPD1 252213Z 34010G15KT 17/08 A3003 RMK A01 T01690084  RH  057%=      5-min Rain = 0
KPD1 252214Z 34011G16KT 17/08 A3003 RMK A01 T01690084  RH  057%=      5-min Rain = 0
KPD1 252215Z 35011KT 17/08 A3003 RMK A01 T01690084  RH  057%=      5-min Rain = 0
KPD1 252216Z 35012KT 17/08 A3003 RMK A01 T01680084  RH  057%=      5-min Rain = 0
KPD1 252217Z 36013KT 17/08 A3003 RMK A01 T01680084  RH  058%=      5-min Rain = 0
KPD1 252218Z 00013KT 17/08 A3003 RMK A01 T01660083  RH  058%=      5-min Rain = 0
KPD1 252219Z 00011KT 17/08 A3003 RMK A01 T01650084  RH  058%=      5-min Rain = 0
KPD1 252220Z 36012KT 17/09 A3003 RMK A01 T01650085  RH  059%=      5-min Rain = 0
KPD1 252221Z 35011KT 16/09 A3002 RMK A01 T01640085  RH  059%=      5-min Rain = 0
KPD1 252222Z 35007KT 16/09 A3002 RMK A01 T01640086  RH  060%=      5-min Rain = 0
KPD1 252223Z 35010KT 16/09 A3002 RMK A01 T01630087  RH  061%=      5-min Rain = 0
KPD1 252224Z 36010KT 16/09 A3002 RMK A01 T01630088  RH  061%=      5-min Rain = 0
KPD1 252225Z 35005G10KT 16/09 A3002 RMK A01 T01610090  RH  062%=      5-min Rain = 0
KPD1 252226Z 34009KT 16/09 A3002 RMK A01 T01610092  RH  064%=      5-min Rain = 0
KPD1 252227Z 34011KT 16/09 A3002 RMK A01 T01600092  RH  064%=      5-min Rain = 0
KPD1 252228Z 34011KT 16/09 A3002 RMK A01 T01580094  RH  066%=      5-min Rain = 0
KPD1 252229Z 33012KT 16/10 A3003 RMK A01 T01570096  RH  067%=      5-min Rain = 0
KPD1 252230Z 33010G15KT 16/10 A3003 RMK A01 T01550098  RH  069%=      5-min Rain = 0
KPD1 252231Z 33011G16KT 15/10 A3003 RMK A01 T01530100  RH  070%=      5-min Rain = 0
KPD1 252232Z 33010KT 15/10 A3003 RMK A01 T01510101  RH  072%=      5-min Rain = 0
KPD1 252233Z 32009KT 15/10 A3003 RMK A01 T01480104  RH  075%=      5-min Rain = 0
KPD1 252234Z 32008KT 15/11 A3003 RMK A01 T01470107  RH  077%=      5-min Rain = 0
KPD1 252235Z 33008KT 15/11 A3003 RMK A01 T01450110  RH  080%=      5-min Rain = 0
KPD1 252236Z 33010KT 14/11 A3003 RMK A01 T01430111  RH  081%=      5-min Rain = 0
KPD1 252237Z 32011KT 14/11 A3003 RMK A01 T01410112  RH  083%=      5-min Rain = 0
KPD1 252238Z 32011KT 14/11 A3003 RMK A01 T01390111  RH  083%=      5-min Rain = 0
KPD1 252239Z 33010KT 14/11 A3003 RMK A01 T01380112  RH  084%=      5-min Rain = 0
KPD1 252240Z 33007KT 14/12 A3003 RMK A01 T01380116  RH  087%=      5-min Rain = 0
KPD1 252241Z 33008KT 14/12 A3003 RMK A01 T01360117  RH  088%=      5-min Rain = 0.01
KPD1 252242Z 34008KT 14/12 A3003 RMK A01 T01360119  RH  089%=      5-min Rain = 0
KPD1 252243Z 33007KT 14/12 A3003 RMK A01 T01350119  RH  090%=      5-min Rain = 0
KPD1 252244Z 34007KT 14/12 A3003 RMK A01 T01350120  RH  091%=      5-min Rain = 0
KPD1 252245Z 33007KT 14/12 A3003 RMK A01 T01350120  RH  091%=      5-min Rain = 0
KPD1 252246Z 33006KT 14/12 A3003 RMK A01 T01350121  RH  091%=      5-min Rain = 0
KPD1 252247Z 34006KT 14/12 A3002 RMK A01 T01350121  RH  092%=      5-min Rain = 0
KPD1 252248Z 35006KT 13/12 A3002 RMK A01 T01340122  RH  092%=      5-min Rain = 0
KPD1 252249Z 35004KT 13/12 A3002 RMK A01 T01340122  RH  092%=      5-min Rain = 0
KPD1 252250Z 35005KT 13/12 A3002 RMK A01 T01340122  RH  093%=      5-min Rain = 0
KPD1 252251Z 36005KT 14/12 A3002 RMK A01 T01350124  RH  093%=      5-min Rain = 0
KPD1 252252Z 00004KT 14/12 A3002 RMK A01 T01350124  RH  093%=      5-min Rain = 0
KPD1 252253Z 35006KT 14/12 A3002 RMK A01 T01350124  RH  093%=      5-min Rain = 0
KPD1 252254Z 00006KT 13/12 A3002 RMK A01 T01340123  RH  093%=      5-min Rain = 0
KPD1 252255Z 36005KT 13/12 A3002 RMK A01 T01340121  RH  092%=      5-min Rain = 0
KPD1 252256Z 36005KT 13/12 A3002 RMK A01 T01340121  RH  092%=      5-min Rain = 0
KPD1 252257Z 00006KT 13/12 A3002 RMK A01 T01340122  RH  092%=      5-min Rain = 0
KPD1 252258Z 01005KT 13/12 A3002 RMK A01 T01340121  RH  092%=      5-min Rain = 0
KPD1 252259Z 01006KT 14/12 A3002 RMK A01 T01350121  RH  092%=      5-min Rain = 0.01
KPD1 252300Z 02006KT 13/12 A3001 RMK A01 T01340120  RH  091%=      5-min Rain = 0
KPD1 252301Z 03006KT 14/12 A3001 RMK A01 T01350119  RH  090%=      5-min Rain = 0
KPD1 252302Z 02005KT 13/12 A3001 RMK A01 T01340119  RH  090%=      5-min Rain = 0
KPD1 252303Z 02005KT 14/12 A3001 RMK A01 T01350121  RH  091%=      5-min Rain = 0
KPD1 252304Z 01005KT 14/12 A3001 RMK A01 T01350121  RH  091%=      5-min Rain = 0
KPD1 252305Z 00004KT 13/12 A3001 RMK A01 T01340118  RH  090%=      5-min Rain = 0
KPD1 252306Z 34003KT 13/12 A3002 RMK A01 T01340118  RH  090%=      5-min Rain = 0
KPD1 252307Z 31003KT 14/12 A3002 RMK A01 T01350120  RH  091%=      5-min Rain = 0
KPD1 252308Z 31005KT 14/12 A3002 RMK A01 T01350123  RH  092%=      5-min Rain = 0
KPD1 252309Z 29004KT 14/12 A3002 RMK A01 T01360124  RH  093%=      5-min Rain = 0.01
KPD1 252310Z 28005KT 14/13 A3003 RMK A01 T01360126  RH  094%=      5-min Rain = 0
KPD1 252311Z 28005KT 14/13 A3003 RMK A01 T01370129  RH  095%=      5-min Rain = 0
KPD1 252312Z 29005KT 14/13 A3003 RMK A01 T01380130  RH  095%=      5-min Rain = 0
KPD1 252313Z 29006KT 14/13 A3003 RMK A01 T01370130  RH  095%=      5-min Rain = 0
KPD1 252314Z 29006KT 14/13 A3003 RMK A01 T01380129  RH  094%=      5-min Rain = 0
KPD1 252315Z 30006KT 14/13 A3003 RMK A01 T01380127  RH  093%=      5-min Rain = 0
KPD1 252316Z 31006KT 14/13 A3003 RMK A01 T01380126  RH  093%=      5-min Rain = 0
KPD1 252317Z 31007KT 14/13 A3003 RMK A01 T01380126  RH  093%=      5-min Rain = 0
KPD1 252318Z 31007KT 14/13 A3003 RMK A01 T01380126  RH  092%=      5-min Rain = 0
KPD1 252319Z 30007KT 14/13 A3003 RMK A01 T01380125  RH  092%=      5-min Rain = 0
KPD1 252320Z 30007KT 14/12 A3003 RMK A01 T01380124  RH  092%=      5-min Rain = 0
KPD1 252321Z 31007KT 14/12 A3003 RMK A01 T01380124  RH  092%=      5-min Rain = 0
KPD1 252322Z 31008KT 14/12 A3003 RMK A01 T01380123  RH  091%=      5-min Rain = 0
KPD1 252323Z 31008KT 14/12 A3003 RMK A01 T01380122  RH  090%=      5-min Rain = 0
KPD1 252324Z 31007KT 14/12 A3003 RMK A01 T01380122  RH  090%=      5-min Rain = 0
KPD1 252325Z 31007KT 14/12 A3003 RMK A01 T01380123  RH  091%=      5-min Rain = 0
KPD1 252326Z 31006KT 14/13 A3003 RMK A01 T01380125  RH  092%=      5-min Rain = 0
KPD1 252327Z 31007KT 14/13 A3003 RMK A01 T01380127  RH  093%=      5-min Rain = 0
KPD1 252328Z 31007KT 14/13 A3003 RMK A01 T01390127  RH  093%=      5-min Rain = 0
KPD1 252329Z 31007KT 14/13 A3003 RMK A01 T01380125  RH  092%=      5-min Rain = 0
KPD1 252330Z 32006KT 14/13 A3003 RMK A01 T01390125  RH  092%=      5-min Rain = 0
KPD1 252331Z 32006KT 14/13 A3003 RMK A01 T01390125  RH  092%=      5-min Rain = 0
KPD1 252332Z 31006KT 14/13 A3002 RMK A01 T01390127  RH  093%=      5-min Rain = 0
KPD1 252333Z 32006KT 14/13 A3002 RMK A01 T01390127  RH  092%=      5-min Rain = 0
KPD1 252334Z 32006KT 14/13 A3003 RMK A01 T01400127  RH  092%=      5-min Rain = 0
KPD1 252335Z 33006KT 14/13 A3003 RMK A01 T01400127  RH  092%=      5-min Rain = 0
KPD1 252336Z 33005KT 14/13 A3003 RMK A01 T01400127  RH  092%=      5-min Rain = 0
KPD1 252337Z 33006KT 14/13 A3003 RMK A01 T01400128  RH  092%=      5-min Rain = 0
KPD1 252338Z 33006KT 14/13 A3003 RMK A01 T01400128  RH  093%=      5-min Rain = 0
KPD1 252339Z 32008KT 14/13 A3003 RMK A01 T01400126  RH  091%=      5-min Rain = 0
KPD1 252340Z 32007KT 14/13 A3003 RMK A01 T01390126  RH  091%=      5-min Rain = 0
KPD1 252341Z 32007KT 14/13 A3003 RMK A01 T01400127  RH  092%=      5-min Rain = 0
KPD1 252342Z 31005KT 14/13 A3003 RMK A01 T01400127  RH  092%=      5-min Rain = 0
KPD1 252343Z 32005KT 14/13 A3003 RMK A01 T01400129  RH  093%=      5-min Rain = 0
KPD1 252344Z 31006KT 14/13 A3003 RMK A01 T01400129  RH  093%=      5-min Rain = 0
KPD1 252345Z 31006KT 14/13 A3002 RMK A01 T01400127  RH  092%=      5-min Rain = 0
KPD1 252346Z 31006KT 14/13 A3002 RMK A01 T01400127  RH  092%=      5-min Rain = 0
KPD1 252347Z 31006KT 14/13 A3002 RMK A01 T01400128  RH  092%=      5-min Rain = 0
KPD1 252348Z 32005KT 14/13 A3002 RMK A01 T01400129  RH  093%=      5-min Rain = 0
KPD1 252349Z 32005KT 14/13 A3002 RMK A01 T01400130  RH  093%=      5-min Rain = 0
KPD1 252350Z 32005KT 14/13 A3002 RMK A01 T01400131  RH  094%=      5-min Rain = 0
KPD1 252351Z 31008KT 14/13 A3002 RMK A01 T01400129  RH  093%=      5-min Rain = 0
KPD1 252352Z 31008KT 14/13 A3002 RMK A01 T01400128  RH  092%=      5-min Rain = 0
KPD1 252353Z 32008KT 14/13 A3002 RMK A01 T01400125  RH  091%=      5-min Rain = 0
KPD1 252354Z 32008KT 14/12 A3002 RMK A01 T01390123  RH  090%=      5-min Rain = 0
KPD1 252355Z 32006KT 14/12 A3002 RMK A01 T01390124  RH  090%=      5-min Rain = 0
KPD1 252356Z 32006KT 14/13 A3002 RMK A01 T01400125  RH  091%=      5-min Rain = 0
KPD1 252357Z 32005KT 14/13 A3002 RMK A01 T01390126  RH  092%=      5-min Rain = 0
KPD1 252358Z 32006KT 14/13 A3002 RMK A01 T01400128  RH  093%=      5-min Rain = 0
KPD1 252359Z 32006KT 14/13 A3002 RMK A01 T01400128  RH  093%=      5-min Rain = 0
KPD1 260000Z 32006KT 14/13 A3002 RMK A01 T01400128  RH  093%=      5-min Rain = 0
KPD1 260001Z 31007KT 14/13 A3002 RMK A01 T01400128  RH  092%=      5-min Rain = 0
KPD1 260002Z 32006KT 14/13 A3002 RMK A01 T01400126  RH  092%=      5-min Rain = 0
KPD1 260003Z 33006KT 14/13 A3002 RMK A01 T01390126  RH  091%=      5-min Rain = 0
KPD1 260004Z 31005KT 14/13 A3002 RMK A01 T01400126  RH  091%=      5-min Rain = 0
KPD1 260005Z 33004KT 14/13 A3002 RMK A01 T01390126  RH  091%=      5-min Rain = 0
KPD1 260006Z 33005KT 14/13 A3002 RMK A01 T01400126  RH  091%=      5-min Rain = 0
KPD1 260007Z 32004KT 14/13 A3002 RMK A01 T01390126  RH  092%=      5-min Rain = 0
KPD1 260008Z 33004KT 14/13 A3002 RMK A01 T01400128  RH  092%=      5-min Rain = 0
KPD1 260009Z 34004KT 14/13 A3002 RMK A01 T01400127  RH  092%=      5-min Rain = 0
KPD1 260010Z 34005KT 14/13 A3002 RMK A01 T01400128  RH  092%=      5-min Rain = 0
KPD1 260011Z 33005KT 14/13 A3002 RMK A01 T01400128  RH  093%=      5-min Rain = 0
KPD1 260012Z 33005KT 14/13 A3002 RMK A01 T01400127  RH  092%=      5-min Rain = 0
KPD1 260013Z 33004KT 14/13 A3002 RMK A01 T01400127  RH  092%=      5-min Rain = 0
KPD1 260014Z 33005KT 14/13 A3002 RMK A01 T01400127  RH  092%=      5-min Rain = 0
KPD1 260015Z 32005KT 14/13 A3002 RMK A01 T01400128  RH  092%=      5-min Rain = 0
KPD1 260016Z 33005KT 14/13 A3002 RMK A01 T01400128  RH  092%=      5-min Rain = 0
KPD1 260017Z 32005KT 14/13 A3002 RMK A01 T01410126  RH  091%=      5-min Rain = 0
KPD1 260018Z 33004KT 14/13 A3002 RMK A01 T01400126  RH  091%=      5-min Rain = 0
KPD1 260019Z 33004KT 14/13 A3002 RMK A01 T01410125  RH  090%=      5-min Rain = 0
KPD1 260020Z 34004KT 14/13 A3002 RMK A01 T01410125  RH  090%=      5-min Rain = 0
KPD1 260021Z 33004KT 14/13 A3002 RMK A01 T01410125  RH  090%=      5-min Rain = 0
KPD1 260022Z 34003KT 14/13 A3002 RMK A01 T01410126  RH  091%=      5-min Rain = 0
KPD1 260023Z 33004KT 14/13 A3002 RMK A01 T01410127  RH  091%=      5-min Rain = 0
KPD1 260024Z 33004KT 14/13 A3002 RMK A01 T01410127  RH  091%=      5-min Rain = 0
KPD1 260025Z 33004KT 14/13 A3002 RMK A01 T01410126  RH  090%=      5-min Rain = 0
KPD1 260026Z 33005KT 14/12 A3002 RMK A01 T01410124  RH  090%=      5-min Rain = 0
KPD1 260027Z 33004KT 14/12 A3002 RMK A01 T01410124  RH  089%=      5-min Rain = 0
KPD1 260028Z 32003KT 14/12 A3002 RMK A01 T01410124  RH  090%=      5-min Rain = 0
KPD1 260029Z 32003KT 14/13 A3002 RMK A01 T01410126  RH  091%=      5-min Rain = 0
KPD1 260030Z 32002KT 14/13 A3002 RMK A01 T01410127  RH  091%=      5-min Rain = 0
KPD1 260031Z 31003KT 14/13 A3002 RMK A01 T01410128  RH  091%=      5-min Rain = 0
KPD1 260032Z 32002KT 14/13 A3002 RMK A01 T01420128  RH  091%=      5-min Rain = 0
KPD1 260033Z 31002KT 14/13 A3002 RMK A01 T01420128  RH  091%=      5-min Rain = 0
KPD1 260034Z 30003KT 14/13 A3002 RMK A01 T01420129  RH  092%=      5-min Rain = 0
KPD1 260035Z 31002KT 14/13 A3002 RMK A01 T01420128  RH  091%=      5-min Rain = 0
KPD1 260036Z 31002KT 14/13 A3002 RMK A01 T01420128  RH  091%=      5-min Rain = 0
KPD1 260037Z 31002KT 14/13 A3002 RMK A01 T01420126  RH  090%=      5-min Rain = 0
KPD1 260038Z 33002KT 14/13 A3002 RMK A01 T01420127  RH  090%=      5-min Rain = 0
KPD1 260039Z 31002KT 14/13 A3002 RMK A01 T01420127  RH  090%=      5-min Rain = 0
KPD1 260040Z 31002KT 14/13 A3002 RMK A01 T01420126  RH  090%=      5-min Rain = 0
KPD1 260041Z 32002KT 14/13 A3003 RMK A01 T01420125  RH  089%=      5-min Rain = 0
KPD1 260042Z 30003KT 14/13 A3003 RMK A01 T01430127  RH  090%=      5-min Rain = 0
KPD1 260043Z 31003KT 14/13 A3003 RMK A01 T01430126  RH  090%=      5-min Rain = 0
KPD1 260044Z 31003KT 14/12 A3002 RMK A01 T01430124  RH  088%=      5-min Rain = 0
KPD1 260045Z 31003KT 14/12 A3002 RMK A01 T01430124  RH  089%=      5-min Rain = 0
KPD1 260046Z 31003KT 14/12 A3002 RMK A01 T01430124  RH  088%=      5-min Rain = 0
KPD1 260047Z 30004KT 14/12 A3002 RMK A01 T01430123  RH  088%=      5-min Rain = 0
KPD1 260048Z 30004KT 14/12 A3002 RMK A01 T01430123  RH  088%=      5-min Rain = 0
KPD1 260049Z 30003KT 14/12 A3002 RMK A01 T01430123  RH  088%=      5-min Rain = 0
KPD1 260050Z 30003KT 14/12 A3002 RMK A01 T01430124  RH  088%=      5-min Rain = 0
KPD1 260051Z 30003KT 14/12 A3002 RMK A01 T01430124  RH  089%=      5-min Rain = 0
KPD1 260052Z 30004KT 14/13 A3002 RMK A01 T01430125  RH  089%=      5-min Rain = 0
KPD1 260053Z 30004KT 14/13 A3002 RMK A01 T01430125  RH  089%=      5-min Rain = 0
KPD1 260054Z 30004KT 14/12 A3002 RMK A01 T01420124  RH  089%=      5-min Rain = 0
KPD1 260055Z 30004KT 14/12 A3002 RMK A01 T01420124  RH  089%=      5-min Rain = 0
KPD1 260056Z 30004KT 14/12 A3002 RMK A01 T01430124  RH  089%=      5-min Rain = 0
KPD1 260057Z 30003KT 14/12 A3002 RMK A01 T01420123  RH  088%=      5-min Rain = 0
KPD1 260058Z 30003KT 14/12 A3002 RMK A01 T01420122  RH  088%=      5-min Rain = 0
KPD1 260059Z 30003KT 14/12 A3002 RMK A01 T01420123  RH  089%=      5-min Rain = 0
KPD1 260100Z 30003KT 14/12 A3002 RMK A01 T01420124  RH  089%=      5-min Rain = 0
KPD1 260101Z 30003KT 14/12 A3002 RMK A01 T01420124  RH  089%=      5-min Rain = 0
KPD1 260102Z 30003KT 14/12 A3002 RMK A01 T01420124  RH  089%=      5-min Rain = 0
KPD1 260103Z 30002KT 14/12 A3002 RMK A01 T01420123  RH  088%=      5-min Rain = 0
KPD1 260104Z 30003KT 14/12 A3002 RMK A01 T01420123  RH  089%=      5-min Rain = 0
KPD1 260105Z 30003KT 14/12 A3002 RMK A01 T01420124  RH  089%=      5-min Rain = 0
KPD1 260106Z 30002KT 14/12 A3002 RMK A01 T01430124  RH  088%=      5-min Rain = 0
KPD1 260107Z 30002KT 14/12 A3002 RMK A01 T01430123  RH  088%=      5-min Rain = 0
KPD1 260108Z 30003KT 14/12 A3002 RMK A01 T01430124  RH  088%=      5-min Rain = 0
KPD1 260109Z 30003KT 14/12 A3002 RMK A01 T01430124  RH  088%=      5-min Rain = 0
KPD1 260110Z 30004KT 14/12 A3002 RMK A01 T01430123  RH  088%=      5-min Rain = 0
KPD1 260111Z 30003KT 14/12 A3002 RMK A01 T01430123  RH  088%=      5-min Rain = 0
KPD1 260112Z 31003KT 14/12 A3002 RMK A01 T01430123  RH  088%=      5-min Rain = 0
KPD1 260113Z 30003KT 14/12 A3002 RMK A01 T01430123  RH  088%=      5-min Rain = 0
KPD1 260114Z 31002KT 14/12 A3002 RMK A01 T01420123  RH  088%=      5-min Rain = 0
KPD1 260115Z 31002KT 14/12 A3002 RMK A01 T01420123  RH  088%=      5-min Rain = 0
KPD1 260116Z 31003KT 14/12 A3002 RMK A01 T01420123  RH  088%=      5-min Rain = 0
KPD1 260117Z 31003KT 14/13 A3002 RMK A01 T01420125  RH  089%=      5-min Rain = 0
KPD1 260118Z 31003KT 14/12 A3002 RMK A01 T01430124  RH  089%=      5-min Rain = 0
KPD1 260119Z 32002KT 14/12 A3002 RMK A01 T01430123  RH  088%=      5-min Rain = 0
KPD1 260120Z 35002KT 14/12 A3002 RMK A01 T01440123  RH  088%=      5-min Rain = 0
KPD1 260121Z 34003KT 14/12 A3002 RMK A01 T01440123  RH  087%=      5-min Rain = 0
KPD1 260122Z 33002KT 14/12 A3002 RMK A01 T01440124  RH  087%=      5-min Rain = 0
KPD1 260123Z 32002KT 14/12 A3002 RMK A01 T01440124  RH  088%=      5-min Rain = 0
KPD1 260124Z 31003KT 15/13 A3002 RMK A01 T01450125  RH  088%=      5-min Rain = 0
KPD1 260125Z 31002KT 15/13 A3002 RMK A01 T01460126  RH  088%=      5-min Rain = 0
KPD1 260126Z 30003KT 15/13 A3002 RMK A01 T01450126  RH  088%=      5-min Rain = 0
KPD1 260127Z 30003KT 15/13 A3003 RMK A01 T01460126  RH  088%=      5-min Rain = 0
KPD1 260128Z 30003KT 15/13 A3003 RMK A01 T01460126  RH  087%=      5-min Rain = 0
KPD1 260129Z 30003KT 15/12 A3003 RMK A01 T01460124  RH  087%=      5-min Rain = 0
KPD1 260130Z 30003KT 15/12 A3002 RMK A01 T01460124  RH  087%=      5-min Rain = 0
KPD1 260131Z 29003KT 15/12 A3002 RMK A01 T01460123  RH  086%=      5-min Rain = 0
KPD1 260132Z 29003KT 15/12 A3002 RMK A01 T01450123  RH  086%=      5-min Rain = 0
KPD1 260133Z 30003KT 15/12 A3002 RMK A01 T01450123  RH  087%=      5-min Rain = 0
KPD1 260134Z 29002KT 14/12 A3002 RMK A01 T01440124  RH  087%=      5-min Rain = 0
KPD1 260135Z 29003KT 14/12 A3002 RMK A01 T01440124  RH  088%=      5-min Rain = 0
KPD1 260136Z 29003KT 14/12 A3002 RMK A01 T01430124  RH  088%=      5-min Rain = 0
KPD1 260137Z 29004KT 14/12 A3002 RMK A01 T01420124  RH  089%=      5-min Rain = 0
KPD1 260138Z 29004KT 14/12 A3002 RMK A01 T01420124  RH  089%=      5-min Rain = 0
KPD1 260139Z 29004KT 14/12 A3003 RMK A01 T01410124  RH  090%=      5-min Rain = 0
KPD1 260140Z 29004KT 14/12 A3003 RMK A01 T01400124  RH  090%=      5-min Rain = 0
KPD1 260141Z 29004KT 14/12 A3003 RMK A01 T01400124  RH  090%=      5-min Rain = 0
KPD1 260142Z 29004KT 14/12 A3003 RMK A01 T01390124  RH  091%=      5-min Rain = 0
KPD1 260143Z 29004KT 14/12 A3003 RMK A01 T01390124  RH  091%=      5-min Rain = 0
KPD1 260144Z 30004KT 14/12 A3003 RMK A01 T01380124  RH  091%=      5-min Rain = 0
KPD1 260145Z 30004KT 14/12 A3003 RMK A01 T01370124  RH  092%=      5-min Rain = 0
KPD1 260146Z 30005KT 14/12 A3003 RMK A01 T01370124  RH  092%=      5-min Rain = 0
KPD1 260147Z 30005KT 14/12 A3003 RMK A01 T01360124  RH  092%=      5-min Rain = 0
KPD1 260148Z 30004KT 14/12 A3003 RMK A01 T01360123  RH  092%=      5-min Rain = 0
KPD1 260149Z 30005KT 14/12 A3003 RMK A01 T01350123  RH  092%=      5-min Rain = 0
KPD1 260150Z 30005KT 14/12 A3003 RMK A01 T01350123  RH  092%=      5-min Rain = 0
KPD1 260151Z 30004KT 14/12 A3003 RMK A01 T01350123  RH  093%=      5-min Rain = 0
KPD1 260152Z 30004KT 13/12 A3003 RMK A01 T01340123  RH  093%=      5-min Rain = 0
KPD1 260153Z 31005KT 13/12 A3003 RMK A01 T01340122  RH  093%=      5-min Rain = 0
KPD1 260154Z 30005KT 13/12 A3003 RMK A01 T01330122  RH  093%=      5-min Rain = 0
KPD1 260155Z 30005KT 13/12 A3003 RMK A01 T01330122  RH  093%=      5-min Rain = 0
KPD1 260156Z 30005KT 13/12 A3003 RMK A01 T01330122  RH  093%=      5-min Rain = 0
KPD1 260157Z 33003KT 13/12 A3003 RMK A01 T01330122  RH  093%=      5-min Rain = 0
KPD1 260158Z 35002KT 13/12 A3003 RMK A01 T01320122  RH  093%=      5-min Rain = 0
KPD1 260159Z 35003KT 13/12 A3003 RMK A01 T01320122  RH  094%=      5-min Rain = 0
KPD1 260200Z 32004KT 13/12 A3003 RMK A01 T01320122  RH  094%=      5-min Rain = 0
KPD1 260201Z 31005KT 13/12 A3003 RMK A01 T01310121  RH  094%=      5-min Rain = 0
KPD1 260202Z 32004KT 13/12 A3003 RMK A01 T01310121  RH  093%=      5-min Rain = 0
KPD1 260203Z 32004KT 13/12 A3003 RMK A01 T01310120  RH  093%=      5-min Rain = 0
KPD1 260204Z 32004KT 13/12 A3003 RMK A01 T01310121  RH  093%=      5-min Rain = 0
KPD1 260205Z 32003KT 13/12 A3003 RMK A01 T01310121  RH  093%=      5-min Rain = 0
KPD1 260206Z 32003KT 13/12 A3003 RMK A01 T01310120  RH  093%=      5-min Rain = 0
KPD1 260207Z 32003KT 13/12 A3003 RMK A01 T01310120  RH  093%=      5-min Rain = 0
KPD1 260208Z 31003KT 13/12 A3003 RMK A01 T01310120  RH  094%=      5-min Rain = 0
KPD1 260209Z 31004KT 13/12 A3003 RMK A01 T01300120  RH  094%=      5-min Rain = 0
KPD1 260210Z 30004KT 13/12 A3003 RMK A01 T01290119  RH  094%=      5-min Rain = 0
KPD1 260211Z 30004KT 13/12 A3003 RMK A01 T01280119  RH  094%=      5-min Rain = 0
KPD1 260212Z 30005KT 13/12 A3003 RMK A01 T01280118  RH  094%=      5-min Rain = 0
KPD1 260213Z 30005KT 13/12 A3003 RMK A01 T01270118  RH  094%=      5-min Rain = 0
KPD1 260214Z 30005KT 13/12 A3003 RMK A01 T01260118  RH  095%=      5-min Rain = 0
KPD1 260215Z 30005KT 13/12 A3003 RMK A01 T01260118  RH  095%=      5-min Rain = 0
KPD1 260216Z 30006KT 13/12 A3003 RMK A01 T01260118  RH  095%=      5-min Rain = 0
KPD1 260217Z 30006KT 13/12 A3003 RMK A01 T01250117  RH  095%=      5-min Rain = 0
KPD1 260218Z 30006KT 13/12 A3003 RMK A01 T01250117  RH  095%=      5-min Rain = 0
KPD1 260219Z 30006KT 13/12 A3003 RMK A01 T01250117  RH  095%=      5-min Rain = 0
KPD1 260220Z 30005KT 13/12 A3003 RMK A01 T01250117  RH  095%=      5-min Rain = 0
KPD1 260221Z 30005KT 13/12 A3003 RMK A01 T01250117  RH  095%=      5-min Rain = 0
KPD1 260222Z 30005KT 13/12 A3003 RMK A01 T01250117  RH  095%=      5-min Rain = 0
KPD1 260223Z 30005KT 13/12 A3003 RMK A01 T01250118  RH  095%=      5-min Rain = 0
KPD1 260224Z 30006KT 13/12 A3003 RMK A01 T01250117  RH  095%=      5-min Rain = 0
KPD1 260225Z 29006KT 13/12 A3003 RMK A01 T01250118  RH  095%=      5-min Rain = 0
KPD1 260226Z 29006KT 13/12 A3003 RMK A01 T01250118  RH  096%=      5-min Rain = 0
KPD1 260227Z 29006KT 13/12 A3003 RMK A01 T01250118  RH  096%=      5-min Rain = 0
KPD1 260228Z 29006KT 13/12 A3003 RMK A01 T01250118  RH  096%=      5-min Rain = 0
KPD1 260229Z 29006KT 13/12 A3003 RMK A01 T01250118  RH  096%=      5-min Rain = 0
KPD1 260230Z 29006KT 13/12 A3003 RMK A01 T01250118  RH  095%=      5-min Rain = 0
KPD1 260231Z 29006KT 13/12 A3003 RMK A01 T01250117  RH  095%=      5-min Rain = 0
KPD1 260232Z 29006KT 13/12 A3003 RMK A01 T01250117  RH  095%=      5-min Rain = 0
KPD1 260233Z 29006KT 13/12 A3003 RMK A01 T01250116  RH  094%=      5-min Rain = 0
KPD1 260234Z 29006KT 13/12 A3003 RMK A01 T01250116  RH  094%=      5-min Rain = 0
KPD1 260235Z 29006KT 13/12 A3003 RMK A01 T01250115  RH  094%=      5-min Rain = 0
KPD1 260236Z 29006KT 13/12 A3003 RMK A01 T01250115  RH  094%=      5-min Rain = 0
KPD1 260237Z 29006KT 12/12 A3004 RMK A01 T01240115  RH  094%=      5-min Rain = 0
KPD1 260238Z 29006KT 12/11 A3004 RMK A01 T01240114  RH  094%=      5-min Rain = 0
KPD1 260239Z 29006KT 12/11 A3004 RMK A01 T01240114  RH  094%=      5-min Rain = 0
KPD1 260240Z 29005KT 12/11 A3004 RMK A01 T01240114  RH  094%=      5-min Rain = 0
KPD1 260241Z 29005KT 12/11 A3004 RMK A01 T01240113  RH  094%=      5-min Rain = 0
KPD1 260242Z 29005KT 12/11 A3004 RMK A01 T01240113  RH  093%=      5-min Rain = 0
KPD1 260243Z 29006KT 12/11 A3004 RMK A01 T01230113  RH  093%=      5-min Rain = 0
KPD1 260244Z 29005KT 12/11 A3004 RMK A01 T01230113  RH  093%=      5-min Rain = 0
KPD1 260245Z 29005KT 12/11 A3004 RMK A01 T01230113  RH  093%=      5-min Rain = 0
KPD1 260246Z 29005KT 12/11 A3004 RMK A01 T01230112  RH  093%=      5-min Rain = 0
KPD1 260247Z 29006KT 12/11 A3004 RMK A01 T01230112  RH  093%=      5-min Rain = 0
KPD1 260248Z 29006KT 12/11 A3004 RMK A01 T01230112  RH  093%=      5-min Rain = 0
KPD1 260249Z 29006KT 12/11 A3004 RMK A01 T01230112  RH  093%=      5-min Rain = 0
KPD1 260250Z 29005KT 12/11 A3004 RMK A01 T01230112  RH  093%=      5-min Rain = 0
KPD1 260251Z 29006KT 12/11 A3004 RMK A01 T01230112  RH  093%=      5-min Rain = 0
KPD1 260252Z 29006KT 12/11 A3004 RMK A01 T01230112  RH  093%=      5-min Rain = 0
KPD1 260253Z 30005KT 12/11 A3004 RMK A01 T01230112  RH  093%=      5-min Rain = 0
KPD1 260254Z 29006KT 12/11 A3004 RMK A01 T01230113  RH  093%=      5-min Rain = 0
KPD1 260255Z 29006KT 12/11 A3004 RMK A01 T01230113  RH  093%=      5-min Rain = 0
KPD1 260256Z 30005KT 12/11 A3004 RMK A01 T01240113  RH  093%=      5-min Rain = 0
KPD1 260257Z 30005KT 12/11 A3004 RMK A01 T01230113  RH  093%=      5-min Rain = 0
KPD1 260258Z 30006KT 12/11 A3004 RMK A01 T01230113  RH  093%=      5-min Rain = 0
KPD1 260259Z 30006KT 12/11 A3004 RMK A01 T01230113  RH  093%=      5-min Rain = 0
KPD1 260300Z 30005KT 12/11 A3004 RMK A01 T01230112  RH  093%=      5-min Rain = 0
KPD1 260301Z 31004KT 12/11 A3004 RMK A01 T01230112  RH  093%=      5-min Rain = 0
KPD1 260302Z 31004KT 12/11 A3004 RMK A01 T01230112  RH  093%=      5-min Rain = 0
KPD1 260303Z 31004KT 12/11 A3004 RMK A01 T01220111  RH  093%=      5-min Rain = 0
KPD1 260304Z 30005KT 12/11 A3004 RMK A01 T01220111  RH  093%=      5-min Rain = 0
KPD1 260305Z 30005KT 12/11 A3004 RMK A01 T01210111  RH  093%=      5-min Rain = 0
KPD1 260306Z 30005KT 12/11 A3004 RMK A01 T01210111  RH  094%=      5-min Rain = 0
KPD1 260307Z 30005KT 12/11 A3004 RMK A01 T01210111  RH  094%=      5-min Rain = 0
KPD1 260308Z 30005KT 12/11 A3004 RMK A01 T01210111  RH  094%=      5-min Rain = 0
KPD1 260309Z 30005KT 12/11 A3004 RMK A01 T01210112  RH  094%=      5-min Rain = 0
KPD1 260310Z 30005KT 12/11 A3004 RMK A01 T01210112  RH  094%=      5-min Rain = 0
KPD1 260311Z 29004KT 12/11 A3004 RMK A01 T01210112  RH  094%=      5-min Rain = 0
KPD1 260312Z 29004KT 12/11 A3005 RMK A01 T01210111  RH  094%=      5-min Rain = 0
KPD1 260313Z 30004KT 12/11 A3005 RMK A01 T01200110  RH  094%=      5-min Rain = 0
KPD1 260314Z 29004KT 12/11 A3005 RMK A01 T01200110  RH  094%=      5-min Rain = 0
KPD1 260315Z 29004KT 12/11 A3005 RMK A01 T01200110  RH  094%=      5-min Rain = 0
KPD1 260316Z 29005KT 12/11 A3005 RMK A01 T01200109  RH  093%=      5-min Rain = 0
KPD1 260317Z 29004KT 12/11 A3005 RMK A01 T01190109  RH  093%=      5-min Rain = 0
KPD1 260318Z 29004KT 12/11 A3005 RMK A01 T01190109  RH  094%=      5-min Rain = 0
KPD1 260319Z 29004KT 12/11 A3005 RMK A01 T01190110  RH  094%=      5-min Rain = 0
KPD1 260320Z 29004KT 12/11 A3006 RMK A01 T01190109  RH  094%=      5-min Rain = 0
KPD1 260321Z 29004KT 12/11 A3006 RMK A01 T01190109  RH  094%=      5-min Rain = 0
KPD1 260322Z 29004KT 12/11 A3006 RMK A01 T01190109  RH  094%=      5-min Rain = 0
KPD1 260323Z 29004KT 12/11 A3006 RMK A01 T01190109  RH  094%=      5-min Rain = 0
KPD1 260324Z 29004KT 12/11 A3006 RMK A01 T01180108  RH  094%=      5-min Rain = 0
KPD1 260325Z 28004KT 12/11 A3006 RMK A01 T01180108  RH  094%=      5-min Rain = 0
KPD1 260326Z 29004KT 12/11 A3006 RMK A01 T01180108  RH  094%=      5-min Rain = 0
KPD1 260327Z 29004KT 12/11 A3006 RMK A01 T01180108  RH  094%=      5-min Rain = 0
KPD1 260328Z 28005KT 12/11 A3006 RMK A01 T01170108  RH  094%=      5-min Rain = 0
KPD1 260329Z 29005KT 12/11 A3006 RMK A01 T01180108  RH  094%=      5-min Rain = 0
KPD1 260330Z 28004KT 12/11 A3006 RMK A01 T01170108  RH  094%=      5-min Rain = 0
KPD1 260331Z 29005KT 12/11 A3006 RMK A01 T01170108  RH  094%=      5-min Rain = 0
KPD1 260332Z 29005KT 12/11 A3006 RMK A01 T01180108  RH  094%=      5-min Rain = 0
KPD1 260333Z 28005KT 12/11 A3006 RMK A01 T01180108  RH  094%=      5-min Rain = 0
KPD1 260334Z 29005KT 12/11 A3006 RMK A01 T01180109  RH  094%=      5-min Rain = 0
KPD1 260335Z 29005KT 12/11 A3006 RMK A01 T01180109  RH  094%=      5-min Rain = 0
KPD1 260336Z 29004KT 12/11 A3006 RMK A01 T01180109  RH  094%=      5-min Rain = 0
KPD1 260337Z 29004KT 12/11 A3006 RMK A01 T01180109  RH  095%=      5-min Rain = 0
KPD1 260338Z 29004KT 12/11 A3006 RMK A01 T01180109  RH  095%=      5-min Rain = 0
KPD1 260339Z 29004KT 12/11 A3006 RMK A01 T01180110  RH  095%=      5-min Rain = 0
KPD1 260340Z 29005KT 12/11 A3006 RMK A01 T01180110  RH  095%=      5-min Rain = 0
KPD1 260341Z 29004KT 12/11 A3006 RMK A01 T01180110  RH  095%=      5-min Rain = 0
KPD1 260342Z 29005KT 12/11 A3006 RMK A01 T01180110  RH  095%=      5-min Rain = 0
KPD1 260343Z 29004KT 12/11 A3006 RMK A01 T01180110  RH  095%=      5-min Rain = 0
KPD1 260344Z 29004KT 12/11 A3007 RMK A01 T01180110  RH  095%=      5-min Rain = 0
KPD1 260345Z 29004KT 12/11 A3007 RMK A01 T01170110  RH  095%=      5-min Rain = 0
KPD1 260346Z 29005KT 12/11 A3007 RMK A01 T01170110  RH  095%=      5-min Rain = 0
KPD1 260347Z 29005KT 12/11 A3007 RMK A01 T01170110  RH  095%=      5-min Rain = 0
KPD1 260348Z 29005KT 12/11 A3007 RMK A01 T01180111  RH  095%=      5-min Rain = 0
KPD1 260349Z 30004KT 12/11 A3007 RMK A01 T01180111  RH  095%=      5-min Rain = 0
KPD1 260350Z 30004KT 12/11 A3007 RMK A01 T01180111  RH  095%=      5-min Rain = 0
KPD1 260351Z 29004KT 12/11 A3007 RMK A01 T01180111  RH  095%=      5-min Rain = 0
KPD1 260352Z 29004KT 12/11 A3007 RMK A01 T01180111  RH  095%=      5-min Rain = 0
KPD1 260353Z 29004KT 12/11 A3007 RMK A01 T01180111  RH  095%=      5-min Rain = 0
KPD1 260354Z 29004KT 12/11 A3007 RMK A01 T01180111  RH  095%=      5-min Rain = 0
KPD1 260355Z 29005KT 12/11 A3007 RMK A01 T01180111  RH  095%=      5-min Rain = 0
KPD1 260356Z 29005KT 12/11 A3007 RMK A01 T01190111  RH  095%=      5-min Rain = 0
KPD1 260357Z 29005KT 12/11 A3007 RMK A01 T01190111  RH  095%=      5-min Rain = 0
KPD1 260358Z 29005KT 12/11 A3007 RMK A01 T01180110  RH  095%=      5-min Rain = 0
KPD1 260359Z 29005KT 12/11 A3007 RMK A01 T01180110  RH  095%=      5-min Rain = 0
KPD1 260400Z 29005KT 12/11 A3007 RMK A01 T01180110  RH  095%=      5-min Rain = 0
KPD1 260401Z 28005KT 12/11 A3007 RMK A01 T01180110  RH  095%=      5-min Rain = 0
KPD1 260402Z 29005KT 12/11 A3007 RMK A01 T01180109  RH  094%=      5-min Rain = 0
KPD1 260403Z 29005KT 12/11 A3007 RMK A01 T01180109  RH  094%=      5-min Rain = 0
KPD1 260404Z 29005KT 12/11 A3008 RMK A01 T01180109  RH  095%=      5-min Rain = 0
KPD1 260405Z 29005KT 12/11 A3008 RMK A01 T01180109  RH  095%=      5-min Rain = 0
KPD1 260406Z 29005KT 12/11 A3008 RMK A01 T01180110  RH  095%=      5-min Rain = 0
KPD1 260407Z 29006KT 12/11 A3008 RMK A01 T01170109  RH  095%=      5-min Rain = 0
KPD1 260408Z 29005KT 12/11 A3008 RMK A01 T01180110  RH  095%=      5-min Rain = 0
KPD1 260409Z 29005KT 12/11 A3008 RMK A01 T01170110  RH  095%=      5-min Rain = 0
KPD1 260410Z 29005KT 12/11 A3008 RMK A01 T01170110  RH  095%=      5-min Rain = 0
KPD1 260411Z 29005KT 12/11 A3008 RMK A01 T01170109  RH  095%=      5-min Rain = 0
KPD1 260412Z 29005KT 12/11 A3008 RMK A01 T01170109  RH  095%=      5-min Rain = 0
KPD1 260413Z 29005KT 12/11 A3008 RMK A01 T01160109  RH  095%=      5-min Rain = 0
KPD1 260414Z 29004KT 12/11 A3008 RMK A01 T01160109  RH  096%=      5-min Rain = 0
KPD1 260415Z 30004KT 12/11 A3008 RMK A01 T01160110  RH  096%=      5-min Rain = 0
KPD1 260416Z 29006KT 12/11 A3008 RMK A01 T01160109  RH  096%=      5-min Rain = 0
KPD1 260417Z 29006KT 12/11 A3008 RMK A01 T01160109  RH  096%=      5-min Rain = 0
KPD1 260418Z 29005KT 12/11 A3008 RMK A01 T01160110  RH  096%=      5-min Rain = 0
KPD1 260419Z 30006KT 12/11 A3008 RMK A01 T01160109  RH  095%=      5-min Rain = 0
KPD1 260420Z 30005KT 12/11 A3008 RMK A01 T01160109  RH  095%=      5-min Rain = 0
KPD1 260421Z 29004KT 12/11 A3008 RMK A01 T01160109  RH  095%=      5-min Rain = 0
KPD1 260422Z 30003KT 12/11 A3008 RMK A01 T01160108  RH  095%=      5-min Rain = 0
KPD1 260423Z 33002KT 12/11 A3008 RMK A01 T01160108  RH  095%=      5-min Rain = 0
KPD1 260424Z 30002KT 12/11 A3008 RMK A01 T01160108  RH  095%=      5-min Rain = 0
KPD1 260425Z 30003KT 12/11 A3008 RMK A01 T01160108  RH  095%=      5-min Rain = 0
KPD1 260426Z 30003KT 12/11 A3008 RMK A01 T01160108  RH  095%=      5-min Rain = 0
KPD1 260427Z 30002KT 12/11 A3008 RMK A01 T01160108  RH  095%=      5-min Rain = 0
KPD1 260428Z 29003KT 12/11 A3008 RMK A01 T01160108  RH  095%=      5-min Rain = 0
KPD1 260429Z 30003KT 12/11 A3008 RMK A01 T01160108  RH  095%=      5-min Rain = 0
KPD1 260430Z 30003KT 12/11 A3008 RMK A01 T01160108  RH  095%=      5-min Rain = 0
KPD1 260431Z 31004KT 12/11 A3008 RMK A01 T01150107  RH  095%=      5-min Rain = 0
KPD1 260432Z 32002KT 12/11 A3008 RMK A01 T01150107  RH  095%=      5-min Rain = 0
KPD1 260433Z 31002KT 12/11 A3008 RMK A01 T01150107  RH  095%=      5-min Rain = 0
KPD1 260434Z 31004KT 11/11 A3008 RMK A01 T01140106  RH  095%=      5-min Rain = 0
KPD1 260435Z 31003KT 11/11 A3008 RMK A01 T01140106  RH  095%=      5-min Rain = 0
KPD1 260436Z 30003KT 11/11 A3008 RMK A01 T01140106  RH  095%=      5-min Rain = 0
KPD1 260437Z 31003KT 11/11 A3008 RMK A01 T01140106  RH  095%=      5-min Rain = 0
KPD1 260438Z 33002KT 11/11 A3008 RMK A01 T01130106  RH  095%=      5-min Rain = 0
KPD1 260439Z 34002KT 11/11 A3008 RMK A01 T01140106  RH  095%=      5-min Rain = 0
KPD1 260440Z 34002KT 11/11 A3008 RMK A01 T01130106  RH  095%=      5-min Rain = 0
KPD1 260441Z 35002KT 11/11 A3008 RMK A01 T01140107  RH  095%=      5-min Rain = 0
KPD1 260442Z 34002KT 11/11 A3008 RMK A01 T01140107  RH  095%=      5-min Rain = 0
KPD1 260443Z 34003KT 11/11 A3008 RMK A01 T01140107  RH  095%=      5-min Rain = 0
KPD1 260444Z 34002KT 11/11 A3008 RMK A01 T01130105  RH  095%=      5-min Rain = 0
KPD1 260445Z 33002KT 11/11 A3008 RMK A01 T01120105  RH  095%=      5-min Rain = 0
KPD1 260446Z 33002KT 11/11 A3008 RMK A01 T01120105  RH  096%=      5-min Rain = 0
KPD1 260447Z 33003KT 11/11 A3008 RMK A01 T01120106  RH  096%=      5-min Rain = 0
KPD1 260448Z 34003KT 11/11 A3008 RMK A01 T01120106  RH  096%=      5-min Rain = 0
KPD1 260449Z 35003KT 11/11 A3008 RMK A01 T01130106  RH  096%=      5-min Rain = 0
KPD1 260450Z 34004KT 11/11 A3008 RMK A01 T01120106  RH  096%=      5-min Rain = 0
KPD1 260451Z 35004KT 11/10 A3008 RMK A01 T01120104  RH  095%=      5-min Rain = 0
KPD1 260452Z 34004KT 11/10 A3008 RMK A01 T01110104  RH  095%=      5-min Rain = 0
KPD1 260453Z 33004KT 11/10 A3008 RMK A01 T01110104  RH  095%=      5-min Rain = 0
KPD1 260454Z 34004KT 11/10 A3008 RMK A01 T01110104  RH  096%=      5-min Rain = 0
KPD1 260455Z 32004KT 11/11 A3008 RMK A01 T01110105  RH  096%=      5-min Rain = 0
KPD1 260456Z 32004KT 11/10 A3008 RMK A01 T01110104  RH  096%=      5-min Rain = 0
KPD1 260457Z 31003KT 11/10 A3008 RMK A01 T01110104  RH  096%=      5-min Rain = 0
KPD1 260458Z 31003KT 11/10 A3008 RMK A01 T01100104  RH  096%=      5-min Rain = 0
KPD1 260459Z 30004KT 11/10 A3008 RMK A01 T01110104  RH  096%=      5-min Rain = 0

Page generated in 0.2437 seconds.